Observation data for Throckmorton on 07/05/2020      Previous  Date  Next       Current Mesonet Observations  Soil Data  Daily Summary Page  Observations in Plain Language
KTH1 050500Z 07005KT 27/22 A2989 RMK A01 T02730217  RH  071%=      5-min Rain = 0
KTH1 050501Z 07005KT 27/22 A2989 RMK A01 T02720217  RH  072%=      5-min Rain = 0
KTH1 050502Z 07005KT 27/22 A2989 RMK A01 T02720217  RH  072%=      5-min Rain = 0
KTH1 050503Z 07005KT 27/22 A2989 RMK A01 T02710217  RH  072%=      5-min Rain = 0
KTH1 050504Z 07005KT 27/22 A2989 RMK A01 T02710217  RH  072%=      5-min Rain = 0
KTH1 050505Z 08004KT 27/22 A2989 RMK A01 T02700217  RH  072%=      5-min Rain = 0
KTH1 050506Z 08004KT 27/22 A2989 RMK A01 T02700217  RH  073%=      5-min Rain = 0
KTH1 050507Z 08004KT 27/22 A2989 RMK A01 T02700217  RH  073%=      5-min Rain = 0
KTH1 050508Z 08004KT 27/22 A2989 RMK A01 T02690217  RH  073%=      5-min Rain = 0
KTH1 050509Z 08004KT 27/22 A2989 RMK A01 T02690217  RH  073%=      5-min Rain = 0
KTH1 050510Z 09004KT 27/22 A2989 RMK A01 T02690217  RH  073%=      5-min Rain = 0
KTH1 050511Z 08004KT 27/22 A2989 RMK A01 T02680217  RH  073%=      5-min Rain = 0
KTH1 050512Z 09004KT 27/22 A2989 RMK A01 T02680217  RH  074%=      5-min Rain = 0
KTH1 050513Z 08004KT 27/22 A2989 RMK A01 T02680217  RH  074%=      5-min Rain = 0
KTH1 050514Z 08004KT 27/22 A2989 RMK A01 T02670217  RH  074%=      5-min Rain = 0
KTH1 050515Z 07003KT 27/22 A2989 RMK A01 T02670217  RH  074%=      5-min Rain = 0
KTH1 050516Z 07003KT 27/22 A2989 RMK A01 T02670217  RH  074%=      5-min Rain = 0
KTH1 050517Z 07003KT 27/22 A2989 RMK A01 T02660217  RH  074%=      5-min Rain = 0
KTH1 050518Z 07003KT 27/22 A2989 RMK A01 T02660217  RH  074%=      5-min Rain = 0
KTH1 050519Z 07003KT 27/22 A2989 RMK A01 T02660217  RH  075%=      5-min Rain = 0
KTH1 050520Z 06003KT 27/22 A2989 RMK A01 T02660217  RH  075%=      5-min Rain = 0
KTH1 050521Z 06003KT 27/22 A2989 RMK A01 T02650217  RH  075%=      5-min Rain = 0
KTH1 050522Z 06003KT 27/22 A2989 RMK A01 T02650217  RH  075%=      5-min Rain = 0
KTH1 050523Z 06003KT 27/22 A2989 RMK A01 T02650217  RH  075%=      5-min Rain = 0
KTH1 050524Z 06003KT 27/22 A2989 RMK A01 T02650217  RH  075%=      5-min Rain = 0
KTH1 050525Z 05004KT 27/22 A2989 RMK A01 T02650217  RH  075%=      5-min Rain = 0
KTH1 050526Z 05004KT 27/22 A2989 RMK A01 T02650218  RH  075%=      5-min Rain = 0
KTH1 050527Z 05004KT 27/22 A2989 RMK A01 T02650218  RH  075%=      5-min Rain = 0
KTH1 050528Z 05004KT 26/22 A2989 RMK A01 T02640218  RH  076%=      5-min Rain = 0
KTH1 050529Z 06004KT 26/22 A2989 RMK A01 T02640218  RH  076%=      5-min Rain = 0
KTH1 050530Z 06004KT 27/22 A2989 RMK A01 T02650219  RH  076%=      5-min Rain = 0
KTH1 050531Z 06004KT 26/22 A2989 RMK A01 T02640219  RH  076%=      5-min Rain = 0
KTH1 050532Z 06004KT 27/22 A2989 RMK A01 T02650219  RH  076%=      5-min Rain = 0
KTH1 050533Z 06004KT 27/22 A2989 RMK A01 T02650219  RH  076%=      5-min Rain = 0
KTH1 050534Z 06004KT 27/22 A2989 RMK A01 T02650220  RH  076%=      5-min Rain = 0
KTH1 050535Z 07004KT 27/22 A2989 RMK A01 T02650220  RH  076%=      5-min Rain = 0
KTH1 050536Z 06004KT 27/22 A2989 RMK A01 T02660221  RH  076%=      5-min Rain = 0
KTH1 050537Z 06004KT 27/22 A2989 RMK A01 T02660221  RH  076%=      5-min Rain = 0
KTH1 050538Z 06004KT 27/22 A2989 RMK A01 T02660221  RH  076%=      5-min Rain = 0
KTH1 050539Z 06004KT 27/22 A2989 RMK A01 T02660221  RH  076%=      5-min Rain = 0
KTH1 050540Z 06004KT 27/22 A2989 RMK A01 T02660221  RH  077%=      5-min Rain = 0
KTH1 050541Z 05004KT 27/22 A2989 RMK A01 T02650222  RH  077%=      5-min Rain = 0
KTH1 050542Z 05004KT 27/22 A2989 RMK A01 T02650222  RH  077%=      5-min Rain = 0
KTH1 050543Z 05004KT 26/22 A2989 RMK A01 T02640222  RH  077%=      5-min Rain = 0
KTH1 050544Z 05004KT 26/22 A2989 RMK A01 T02640222  RH  078%=      5-min Rain = 0
KTH1 050545Z 05005KT 26/22 A2989 RMK A01 T02640222  RH  078%=      5-min Rain = 0
KTH1 050546Z 05004KT 26/22 A2989 RMK A01 T02640223  RH  078%=      5-min Rain = 0
KTH1 050547Z 06004KT 26/22 A2989 RMK A01 T02640223  RH  078%=      5-min Rain = 0
KTH1 050548Z 06004KT 26/22 A2989 RMK A01 T02640223  RH  078%=      5-min Rain = 0
KTH1 050549Z 05004KT 26/22 A2989 RMK A01 T02640224  RH  079%=      5-min Rain = 0
KTH1 050550Z 05004KT 26/22 A2989 RMK A01 T02640224  RH  079%=      5-min Rain = 0
KTH1 050551Z 06004KT 26/22 A2989 RMK A01 T02640224  RH  079%=      5-min Rain = 0
KTH1 050552Z 05005KT 26/22 A2989 RMK A01 T02640224  RH  079%=      5-min Rain = 0
KTH1 050553Z 05005KT 26/22 A2989 RMK A01 T02640224  RH  079%=      5-min Rain = 0
KTH1 050554Z 06005KT 26/23 A2989 RMK A01 T02640225  RH  079%=      5-min Rain = 0
KTH1 050555Z 06004KT 26/23 A2989 RMK A01 T02640225  RH  079%=      5-min Rain = 0
KTH1 050556Z 06004KT 26/23 A2989 RMK A01 T02640225  RH  079%=      5-min Rain = 0
KTH1 050557Z 06004KT 26/23 A2989 RMK A01 T02640225  RH  079%=      5-min Rain = 0
KTH1 050558Z 06005KT 26/23 A2989 RMK A01 T02640225  RH  079%=      5-min Rain = 0
KTH1 050559Z 06005KT 26/23 A2989 RMK A01 T02640225  RH  079%=      5-min Rain = 0
KTH1 050600Z 06004KT 26/23 A2989 RMK A01 T02640225  RH  079%=      5-min Rain = 0
KTH1 050601Z 06004KT 26/23 A2989 RMK A01 T02640225  RH  079%=      5-min Rain = 0
KTH1 050602Z 06004KT 26/23 A2989 RMK A01 T02640225  RH  079%=      5-min Rain = 0
KTH1 050603Z 05004KT 27/23 A2989 RMK A01 T02650226  RH  079%=      5-min Rain = 0
KTH1 050604Z 05004KT 26/23 A2989 RMK A01 T02640225  RH  079%=      5-min Rain = 0
KTH1 050605Z 05004KT 27/23 A2989 RMK A01 T02650226  RH  079%=      5-min Rain = 0
KTH1 050606Z 05003KT 27/23 A2989 RMK A01 T02650226  RH  079%=      5-min Rain = 0
KTH1 050607Z 04004KT 27/23 A2989 RMK A01 T02650226  RH  079%=      5-min Rain = 0
KTH1 050608Z 04003KT 27/23 A2989 RMK A01 T02650226  RH  079%=      5-min Rain = 0
KTH1 050609Z 04004KT 27/23 A2989 RMK A01 T02650226  RH  079%=      5-min Rain = 0
KTH1 050610Z 04004KT 27/23 A2989 RMK A01 T02650226  RH  079%=      5-min Rain = 0
KTH1 050611Z 04003KT 27/23 A2989 RMK A01 T02650226  RH  079%=      5-min Rain = 0
KTH1 050612Z 05003KT 26/23 A2989 RMK A01 T02640226  RH  080%=      5-min Rain = 0
KTH1 050613Z 05003KT 26/23 A2989 RMK A01 T02640226  RH  080%=      5-min Rain = 0
KTH1 050614Z 05003KT 26/23 A2989 RMK A01 T02630226  RH  080%=      5-min Rain = 0
KTH1 050615Z 05003KT 26/23 A2989 RMK A01 T02630226  RH  080%=      5-min Rain = 0
KTH1 050616Z 05003KT 26/23 A2989 RMK A01 T02630226  RH  080%=      5-min Rain = 0
KTH1 050617Z 05003KT 26/23 A2989 RMK A01 T02630227  RH  080%=      5-min Rain = 0
KTH1 050618Z 05004KT 26/23 A2989 RMK A01 T02630226  RH  080%=      5-min Rain = 0
KTH1 050619Z 05004KT 26/23 A2989 RMK A01 T02620226  RH  081%=      5-min Rain = 0
KTH1 050620Z 05004KT 26/23 A2989 RMK A01 T02630227  RH  080%=      5-min Rain = 0
KTH1 050621Z 05005KT 26/23 A2989 RMK A01 T02630227  RH  080%=      5-min Rain = 0
KTH1 050622Z 06005KT 26/23 A2989 RMK A01 T02630227  RH  080%=      5-min Rain = 0
KTH1 050623Z 05005KT 26/23 A2989 RMK A01 T02630227  RH  080%=      5-min Rain = 0
KTH1 050624Z 05004KT 26/23 A2989 RMK A01 T02640227  RH  080%=      5-min Rain = 0
KTH1 050625Z 06005KT 26/23 A2989 RMK A01 T02640227  RH  080%=      5-min Rain = 0
KTH1 050626Z 06004KT 26/23 A2989 RMK A01 T02640227  RH  080%=      5-min Rain = 0
KTH1 050627Z 06005KT 26/23 A2989 RMK A01 T02640227  RH  080%=      5-min Rain = 0
KTH1 050628Z 06004KT 27/23 A2989 RMK A01 T02650228  RH  080%=      5-min Rain = 0
KTH1 050629Z 06005KT 26/23 A2989 RMK A01 T02640228  RH  080%=      5-min Rain = 0
KTH1 050630Z 06004KT 27/23 A2989 RMK A01 T02650228  RH  080%=      5-min Rain = 0
KTH1 050631Z 06004KT 26/23 A2989 RMK A01 T02640228  RH  080%=      5-min Rain = 0
KTH1 050632Z 06005KT 26/23 A2989 RMK A01 T02640228  RH  080%=      5-min Rain = 0
KTH1 050633Z 06004KT 26/23 A2989 RMK A01 T02640228  RH  080%=      5-min Rain = 0
KTH1 050634Z 05005KT 26/23 A2989 RMK A01 T02640228  RH  080%=      5-min Rain = 0
KTH1 050635Z 05004KT 26/23 A2989 RMK A01 T02640228  RH  080%=      5-min Rain = 0
KTH1 050636Z 06004KT 27/23 A2989 RMK A01 T02650228  RH  081%=      5-min Rain = 0
KTH1 050637Z 06005KT 26/23 A2989 RMK A01 T02640228  RH  081%=      5-min Rain = 0
KTH1 050638Z 06005KT 26/23 A2989 RMK A01 T02640228  RH  081%=      5-min Rain = 0
KTH1 050639Z 05005KT 26/23 A2989 RMK A01 T02640228  RH  081%=      5-min Rain = 0
KTH1 050640Z 05005KT 26/23 A2989 RMK A01 T02640228  RH  081%=      5-min Rain = 0
KTH1 050641Z 05004KT 26/23 A2989 RMK A01 T02640228  RH  081%=      5-min Rain = 0
KTH1 050642Z 05004KT 26/23 A2989 RMK A01 T02640228  RH  081%=      5-min Rain = 0
KTH1 050643Z 05004KT 26/23 A2989 RMK A01 T02640228  RH  080%=      5-min Rain = 0
KTH1 050644Z 05004KT 27/23 A2989 RMK A01 T02650229  RH  081%=      5-min Rain = 0
KTH1 050645Z 05004KT 27/23 A2989 RMK A01 T02650229  RH  080%=      5-min Rain = 0
KTH1 050646Z 05005KT 27/23 A2989 RMK A01 T02650228  RH  080%=      5-min Rain = 0
KTH1 050647Z 05004KT 27/23 A2989 RMK A01 T02650229  RH  080%=      5-min Rain = 0
KTH1 050648Z 05005KT 27/23 A2989 RMK A01 T02650229  RH  080%=      5-min Rain = 0
KTH1 050649Z 05004KT 27/23 A2989 RMK A01 T02660229  RH  080%=      5-min Rain = 0
KTH1 050650Z 06005KT 27/23 A2989 RMK A01 T02660229  RH  080%=      5-min Rain = 0
KTH1 050651Z 05005KT 27/23 A2989 RMK A01 T02660229  RH  080%=      5-min Rain = 0
KTH1 050652Z 05005KT 27/23 A2989 RMK A01 T02660229  RH  080%=      5-min Rain = 0
KTH1 050653Z 05005KT 27/23 A2989 RMK A01 T02660229  RH  080%=      5-min Rain = 0
KTH1 050654Z 06005KT 27/23 A2989 RMK A01 T02660229  RH  080%=      5-min Rain = 0
KTH1 050655Z 05005KT 27/23 A2989 RMK A01 T02660229  RH  080%=      5-min Rain = 0
KTH1 050656Z 05005KT 27/23 A2989 RMK A01 T02660229  RH  080%=      5-min Rain = 0
KTH1 050657Z 05005KT 27/23 A2989 RMK A01 T02660230  RH  080%=      5-min Rain = 0
KTH1 050658Z 05005KT 27/23 A2989 RMK A01 T02660230  RH  080%=      5-min Rain = 0
KTH1 050659Z 05004KT 27/23 A2989 RMK A01 T02660230  RH  080%=      5-min Rain = 0
KTH1 050700Z 06005KT 27/23 A2989 RMK A01 T02660230  RH  081%=      5-min Rain = 0
KTH1 050701Z 05004KT 27/23 A2989 RMK A01 T02660230  RH  081%=      5-min Rain = 0
KTH1 050702Z 05004KT 27/23 A2989 RMK A01 T02660230  RH  081%=      5-min Rain = 0
KTH1 050703Z 05004KT 27/23 A2989 RMK A01 T02660230  RH  081%=      5-min Rain = 0
KTH1 050704Z 06004KT 27/23 A2989 RMK A01 T02660230  RH  081%=      5-min Rain = 0
KTH1 050705Z 06003KT 27/23 A2989 RMK A01 T02660230  RH  081%=      5-min Rain = 0
KTH1 050706Z 05004KT 27/23 A2989 RMK A01 T02660230  RH  081%=      5-min Rain = 0
KTH1 050707Z 05004KT 27/23 A2989 RMK A01 T02660230  RH  081%=      5-min Rain = 0
KTH1 050708Z 06005KT 27/23 A2989 RMK A01 T02660230  RH  081%=      5-min Rain = 0
KTH1 050709Z 06004KT 27/23 A2989 RMK A01 T02660231  RH  081%=      5-min Rain = 0
KTH1 050710Z 05004KT 27/23 A2989 RMK A01 T02660230  RH  081%=      5-min Rain = 0
KTH1 050711Z 06005KT 27/23 A2989 RMK A01 T02660231  RH  081%=      5-min Rain = 0
KTH1 050712Z 07005KT 27/23 A2989 RMK A01 T02660230  RH  081%=      5-min Rain = 0
KTH1 050713Z 06004KT 27/23 A2989 RMK A01 T02660231  RH  081%=      5-min Rain = 0
KTH1 050714Z 07004KT 27/23 A2989 RMK A01 T02660231  RH  081%=      5-min Rain = 0
KTH1 050715Z 07004KT 27/23 A2989 RMK A01 T02660231  RH  081%=      5-min Rain = 0
KTH1 050716Z 06004KT 27/23 A2989 RMK A01 T02660231  RH  081%=      5-min Rain = 0
KTH1 050717Z 07004KT 27/23 A2989 RMK A01 T02660231  RH  081%=      5-min Rain = 0
KTH1 050718Z 07004KT 27/23 A2989 RMK A01 T02660231  RH  081%=      5-min Rain = 0
KTH1 050719Z 08005KT 27/23 A2989 RMK A01 T02660231  RH  081%=      5-min Rain = 0
KTH1 050720Z 07004KT 27/23 A2989 RMK A01 T02660231  RH  081%=      5-min Rain = 0
KTH1 050721Z 07004KT 27/23 A2989 RMK A01 T02650231  RH  081%=      5-min Rain = 0
KTH1 050722Z 07004KT 27/23 A2989 RMK A01 T02650232  RH  082%=      5-min Rain = 0
KTH1 050723Z 07004KT 27/23 A2989 RMK A01 T02650232  RH  082%=      5-min Rain = 0
KTH1 050724Z 07004KT 27/23 A2989 RMK A01 T02650232  RH  082%=      5-min Rain = 0
KTH1 050725Z 07005KT 26/23 A2989 RMK A01 T02640232  RH  082%=      5-min Rain = 0
KTH1 050726Z 07004KT 26/23 A2989 RMK A01 T02640232  RH  082%=      5-min Rain = 0
KTH1 050727Z 08004KT 26/23 A2989 RMK A01 T02640232  RH  083%=      5-min Rain = 0
KTH1 050728Z 08004KT 26/23 A2989 RMK A01 T02640232  RH  083%=      5-min Rain = 0
KTH1 050729Z 08005KT 26/23 A2989 RMK A01 T02640232  RH  083%=      5-min Rain = 0
KTH1 050730Z 08005KT 26/23 A2989 RMK A01 T02640232  RH  083%=      5-min Rain = 0
KTH1 050731Z 07005KT 26/23 A2989 RMK A01 T02630232  RH  083%=      5-min Rain = 0
KTH1 050732Z 07005KT 26/23 A2989 RMK A01 T02630232  RH  083%=      5-min Rain = 0
KTH1 050733Z 08006KT 26/23 A2989 RMK A01 T02630232  RH  083%=      5-min Rain = 0
KTH1 050734Z 08005KT 26/23 A2989 RMK A01 T02630232  RH  083%=      5-min Rain = 0
KTH1 050735Z 08005KT 26/23 A2989 RMK A01 T02630232  RH  083%=      5-min Rain = 0
KTH1 050736Z 08005KT 26/23 A2989 RMK A01 T02630231  RH  083%=      5-min Rain = 0
KTH1 050737Z 08005KT 26/23 A2989 RMK A01 T02630231  RH  083%=      5-min Rain = 0
KTH1 050738Z 08006KT 26/23 A2989 RMK A01 T02640231  RH  082%=      5-min Rain = 0
KTH1 050739Z 07004KT 26/23 A2989 RMK A01 T02640231  RH  082%=      5-min Rain = 0
KTH1 050740Z 07004KT 26/23 A2989 RMK A01 T02640231  RH  082%=      5-min Rain = 0
KTH1 050741Z 08004KT 26/23 A2989 RMK A01 T02640231  RH  082%=      5-min Rain = 0
KTH1 050742Z 08004KT 26/23 A2989 RMK A01 T02640231  RH  082%=      5-min Rain = 0
KTH1 050743Z 08004KT 26/23 A2989 RMK A01 T02640231  RH  082%=      5-min Rain = 0
KTH1 050744Z 08004KT 27/23 A2989 RMK A01 T02650231  RH  082%=      5-min Rain = 0
KTH1 050745Z 07004KT 27/23 A2989 RMK A01 T02650231  RH  082%=      5-min Rain = 0
KTH1 050746Z 08004KT 27/23 A2989 RMK A01 T02650231  RH  082%=      5-min Rain = 0
KTH1 050747Z 08004KT 27/23 A2989 RMK A01 T02650231  RH  082%=      5-min Rain = 0
KTH1 050748Z 08004KT 27/23 A2989 RMK A01 T02650231  RH  082%=      5-min Rain = 0
KTH1 050749Z 09005KT 27/23 A2989 RMK A01 T02650231  RH  082%=      5-min Rain = 0
KTH1 050750Z 08005KT 27/23 A2989 RMK A01 T02650231  RH  081%=      5-min Rain = 0
KTH1 050751Z 08005KT 27/23 A2989 RMK A01 T02660231  RH  081%=      5-min Rain = 0
KTH1 050752Z 08005KT 27/23 A2989 RMK A01 T02660231  RH  081%=      5-min Rain = 0
KTH1 050753Z 08004KT 27/23 A2989 RMK A01 T02660231  RH  081%=      5-min Rain = 0
KTH1 050754Z 08005KT 27/23 A2989 RMK A01 T02660231  RH  081%=      5-min Rain = 0
KTH1 050755Z 08005KT 27/23 A2989 RMK A01 T02660231  RH  081%=      5-min Rain = 0
KTH1 050756Z 07005KT 27/23 A2989 RMK A01 T02660231  RH  081%=      5-min Rain = 0
KTH1 050757Z 07004KT 27/23 A2989 RMK A01 T02660231  RH  081%=      5-min Rain = 0
KTH1 050758Z 07005KT 27/23 A2989 RMK A01 T02660231  RH  081%=      5-min Rain = 0
KTH1 050759Z 07004KT 27/23 A2989 RMK A01 T02660231  RH  081%=      5-min Rain = 0
KTH1 050800Z 08004KT 27/23 A2989 RMK A01 T02660231  RH  081%=      5-min Rain = 0
KTH1 050801Z 07004KT 27/23 A2989 RMK A01 T02660231  RH  081%=      5-min Rain = 0
KTH1 050802Z 08004KT 27/23 A2989 RMK A01 T02660231  RH  081%=      5-min Rain = 0
KTH1 050803Z 07003KT 27/23 A2989 RMK A01 T02660231  RH  081%=      5-min Rain = 0
KTH1 050804Z 08003KT 27/23 A2989 RMK A01 T02660231  RH  081%=      5-min Rain = 0
KTH1 050805Z 07004KT 27/23 A2989 RMK A01 T02660231  RH  081%=      5-min Rain = 0
KTH1 050806Z 07004KT 27/23 A2989 RMK A01 T02660231  RH  081%=      5-min Rain = 0
KTH1 050807Z 06004KT 27/23 A2989 RMK A01 T02650231  RH  081%=      5-min Rain = 0
KTH1 050808Z 05004KT 27/23 A2989 RMK A01 T02650231  RH  081%=      5-min Rain = 0
KTH1 050809Z 06005KT 27/23 A2989 RMK A01 T02650231  RH  081%=      5-min Rain = 0
KTH1 050810Z 06004KT 27/23 A2989 RMK A01 T02650231  RH  081%=      5-min Rain = 0
KTH1 050811Z 06005KT 27/23 A2989 RMK A01 T02650231  RH  081%=      5-min Rain = 0
KTH1 050812Z 06005KT 27/23 A2989 RMK A01 T02650231  RH  081%=      5-min Rain = 0
KTH1 050813Z 07005KT 27/23 A2989 RMK A01 T02650231  RH  081%=      5-min Rain = 0
KTH1 050814Z 06005KT 27/23 A2989 RMK A01 T02650230  RH  081%=      5-min Rain = 0
KTH1 050815Z 06005KT 27/23 A2989 RMK A01 T02650230  RH  081%=      5-min Rain = 0
KTH1 050816Z 06005KT 27/23 A2989 RMK A01 T02650230  RH  081%=      5-min Rain = 0
KTH1 050817Z 06005KT 27/23 A2989 RMK A01 T02650230  RH  081%=      5-min Rain = 0
KTH1 050818Z 06006KT 27/23 A2989 RMK A01 T02650230  RH  081%=      5-min Rain = 0
KTH1 050819Z 07006KT 27/23 A2988 RMK A01 T02650230  RH  081%=      5-min Rain = 0
KTH1 050820Z 07006KT 27/23 A2988 RMK A01 T02650230  RH  081%=      5-min Rain = 0
KTH1 050821Z 07005KT 27/23 A2988 RMK A01 T02650230  RH  081%=      5-min Rain = 0
KTH1 050822Z 07006KT 27/23 A2989 RMK A01 T02650230  RH  081%=      5-min Rain = 0
KTH1 050823Z 07006KT 27/23 A2989 RMK A01 T02650229  RH  081%=      5-min Rain = 0
KTH1 050824Z 08007KT 27/23 A2989 RMK A01 T02650229  RH  081%=      5-min Rain = 0
KTH1 050825Z 07007KT 27/23 A2988 RMK A01 T02650229  RH  080%=      5-min Rain = 0
KTH1 050826Z 08005KT 27/23 A2988 RMK A01 T02650229  RH  080%=      5-min Rain = 0
KTH1 050827Z 09005KT 27/23 A2988 RMK A01 T02660229  RH  080%=      5-min Rain = 0
KTH1 050828Z 08005KT 27/23 A2988 RMK A01 T02660229  RH  080%=      5-min Rain = 0
KTH1 050829Z 08006KT 27/23 A2988 RMK A01 T02660229  RH  080%=      5-min Rain = 0
KTH1 050830Z 08004KT 27/23 A2988 RMK A01 T02660229  RH  080%=      5-min Rain = 0
KTH1 050831Z 08006KT 27/23 A2988 RMK A01 T02660229  RH  080%=      5-min Rain = 0
KTH1 050832Z 08005KT 27/23 A2988 RMK A01 T02650228  RH  080%=      5-min Rain = 0
KTH1 050833Z 07004KT 27/23 A2988 RMK A01 T02650228  RH  080%=      5-min Rain = 0
KTH1 050834Z 08004KT 27/23 A2988 RMK A01 T02650229  RH  080%=      5-min Rain = 0
KTH1 050835Z 07005KT 27/23 A2988 RMK A01 T02650228  RH  080%=      5-min Rain = 0
KTH1 050836Z 07006KT 27/23 A2988 RMK A01 T02650228  RH  080%=      5-min Rain = 0
KTH1 050837Z 07005KT 26/23 A2988 RMK A01 T02640228  RH  080%=      5-min Rain = 0
KTH1 050838Z 06004KT 26/23 A2988 RMK A01 T02640228  RH  080%=      5-min Rain = 0
KTH1 050839Z 07003KT 26/23 A2989 RMK A01 T02640228  RH  080%=      5-min Rain = 0
KTH1 050840Z 07004KT 26/23 A2989 RMK A01 T02640228  RH  080%=      5-min Rain = 0
KTH1 050841Z 07005KT 26/23 A2989 RMK A01 T02640228  RH  080%=      5-min Rain = 0
KTH1 050842Z 07004KT 26/23 A2989 RMK A01 T02640228  RH  080%=      5-min Rain = 0
KTH1 050843Z 07005KT 27/23 A2989 RMK A01 T02650228  RH  080%=      5-min Rain = 0
KTH1 050844Z 07005KT 26/23 A2989 RMK A01 T02640228  RH  080%=      5-min Rain = 0
KTH1 050845Z 07005KT 26/23 A2989 RMK A01 T02640228  RH  080%=      5-min Rain = 0
KTH1 050846Z 05004KT 26/23 A2989 RMK A01 T02640227  RH  080%=      5-min Rain = 0
KTH1 050847Z 06004KT 26/23 A2989 RMK A01 T02640228  RH  080%=      5-min Rain = 0
KTH1 050848Z 06005KT 26/23 A2989 RMK A01 T02630227  RH  081%=      5-min Rain = 0
KTH1 050849Z 07005KT 26/23 A2989 RMK A01 T02630227  RH  080%=      5-min Rain = 0
KTH1 050850Z 06004KT 26/23 A2989 RMK A01 T02630227  RH  080%=      5-min Rain = 0
KTH1 050851Z 06005KT 26/23 A2989 RMK A01 T02630227  RH  080%=      5-min Rain = 0
KTH1 050852Z 07006KT 26/23 A2989 RMK A01 T02630226  RH  080%=      5-min Rain = 0
KTH1 050853Z 07006KT 26/23 A2988 RMK A01 T02630226  RH  080%=      5-min Rain = 0
KTH1 050854Z 07005KT 26/23 A2988 RMK A01 T02630226  RH  080%=      5-min Rain = 0
KTH1 050855Z 07005KT 26/23 A2988 RMK A01 T02630226  RH  080%=      5-min Rain = 0
KTH1 050856Z 08005KT 26/23 A2988 RMK A01 T02630226  RH  080%=      5-min Rain = 0
KTH1 050857Z 07005KT 26/23 A2988 RMK A01 T02630226  RH  080%=      5-min Rain = 0
KTH1 050858Z 08005KT 26/23 A2988 RMK A01 T02630226  RH  080%=      5-min Rain = 0
KTH1 050859Z 08005KT 26/23 A2988 RMK A01 T02630225  RH  080%=      5-min Rain = 0
KTH1 050900Z 08006KT 26/23 A2988 RMK A01 T02630225  RH  080%=      5-min Rain = 0
KTH1 050901Z 08005KT 26/23 A2988 RMK A01 T02630225  RH  080%=      5-min Rain = 0
KTH1 050902Z 07006KT 26/23 A2988 RMK A01 T02630225  RH  079%=      5-min Rain = 0
KTH1 050903Z 08006KT 26/23 A2989 RMK A01 T02630225  RH  079%=      5-min Rain = 0
KTH1 050904Z 08005KT 26/23 A2989 RMK A01 T02630225  RH  079%=      5-min Rain = 0
KTH1 050905Z 07004KT 26/23 A2989 RMK A01 T02640225  RH  079%=      5-min Rain = 0
KTH1 050906Z 07005KT 26/23 A2989 RMK A01 T02630225  RH  079%=      5-min Rain = 0
KTH1 050907Z 07005KT 26/23 A2989 RMK A01 T02630225  RH  080%=      5-min Rain = 0
KTH1 050908Z 07004KT 26/23 A2989 RMK A01 T02630225  RH  080%=      5-min Rain = 0
KTH1 050909Z 07004KT 26/23 A2989 RMK A01 T02630225  RH  080%=      5-min Rain = 0
KTH1 050910Z 07004KT 26/23 A2988 RMK A01 T02630226  RH  080%=      5-min Rain = 0
KTH1 050911Z 09004KT 26/23 A2988 RMK A01 T02630226  RH  080%=      5-min Rain = 0
KTH1 050912Z 08005KT 26/23 A2988 RMK A01 T02620225  RH  080%=      5-min Rain = 0
KTH1 050913Z 08005KT 26/23 A2988 RMK A01 T02630225  RH  080%=      5-min Rain = 0
KTH1 050914Z 09005KT 26/23 A2988 RMK A01 T02630225  RH  080%=      5-min Rain = 0
KTH1 050915Z 09006KT 26/23 A2988 RMK A01 T02620225  RH  080%=      5-min Rain = 0
KTH1 050916Z 09005KT 26/23 A2988 RMK A01 T02630225  RH  080%=      5-min Rain = 0
KTH1 050917Z 10004KT 26/23 A2988 RMK A01 T02630225  RH  080%=      5-min Rain = 0
KTH1 050918Z 09005KT 26/23 A2988 RMK A01 T02620225  RH  080%=      5-min Rain = 0
KTH1 050919Z 10004KT 26/23 A2988 RMK A01 T02620225  RH  080%=      5-min Rain = 0
KTH1 050920Z 10003KT 26/23 A2988 RMK A01 T02630225  RH  080%=      5-min Rain = 0
KTH1 050921Z 11004KT 26/23 A2988 RMK A01 T02620225  RH  080%=      5-min Rain = 0
KTH1 050922Z 09005KT 26/23 A2988 RMK A01 T02630226  RH  080%=      5-min Rain = 0
KTH1 050923Z 10003KT 26/23 A2988 RMK A01 T02620226  RH  080%=      5-min Rain = 0
KTH1 050924Z 08004KT 26/23 A2988 RMK A01 T02620225  RH  080%=      5-min Rain = 0
KTH1 050925Z 09004KT 26/23 A2988 RMK A01 T02620226  RH  080%=      5-min Rain = 0
KTH1 050926Z 08004KT 26/23 A2988 RMK A01 T02620226  RH  081%=      5-min Rain = 0
KTH1 050927Z 08004KT 26/23 A2988 RMK A01 T02620226  RH  081%=      5-min Rain = 0
KTH1 050928Z 08004KT 26/23 A2988 RMK A01 T02610226  RH  081%=      5-min Rain = 0
KTH1 050929Z 09004KT 26/23 A2988 RMK A01 T02610226  RH  081%=      5-min Rain = 0
KTH1 050930Z 09005KT 26/23 A2988 RMK A01 T02610226  RH  081%=      5-min Rain = 0
KTH1 050931Z 09005KT 26/23 A2988 RMK A01 T02610226  RH  081%=      5-min Rain = 0
KTH1 050932Z 09005KT 26/23 A2988 RMK A01 T02610226  RH  081%=      5-min Rain = 0
KTH1 050933Z 09005KT 26/23 A2988 RMK A01 T02610225  RH  081%=      5-min Rain = 0
KTH1 050934Z 09003KT 26/23 A2988 RMK A01 T02600225  RH  081%=      5-min Rain = 0
KTH1 050935Z 09004KT 26/23 A2988 RMK A01 T02610225  RH  081%=      5-min Rain = 0
KTH1 050936Z 09004KT 26/23 A2988 RMK A01 T02610226  RH  081%=      5-min Rain = 0
KTH1 050937Z 10003KT 26/23 A2988 RMK A01 T02610226  RH  081%=      5-min Rain = 0
KTH1 050938Z 10002KT 26/23 A2988 RMK A01 T02600226  RH  081%=      5-min Rain = 0
KTH1 050939Z 09003KT 26/23 A2988 RMK A01 T02600226  RH  082%=      5-min Rain = 0
KTH1 050940Z 09004KT 26/23 A2988 RMK A01 T02600226  RH  082%=      5-min Rain = 0
KTH1 050941Z 09003KT 26/23 A2988 RMK A01 T02600226  RH  082%=      5-min Rain = 0
KTH1 050942Z 10004KT 26/23 A2988 RMK A01 T02600226  RH  082%=      5-min Rain = 0
KTH1 050943Z 08003KT 26/23 A2988 RMK A01 T02600226  RH  082%=      5-min Rain = 0
KTH1 050944Z 10002KT 26/23 A2988 RMK A01 T02590226  RH  082%=      5-min Rain = 0
KTH1 050945Z 08002KT 26/23 A2988 RMK A01 T02590226  RH  082%=      5-min Rain = 0
KTH1 050946Z 07003KT 26/23 A2988 RMK A01 T02590226  RH  082%=      5-min Rain = 0
KTH1 050947Z 07004KT 26/23 A2988 RMK A01 T02580226  RH  082%=      5-min Rain = 0
KTH1 050948Z 07005KT 26/23 A2988 RMK A01 T02580226  RH  083%=      5-min Rain = 0
KTH1 050949Z 07004KT 26/23 A2988 RMK A01 T02580226  RH  083%=      5-min Rain = 0
KTH1 050950Z 07005KT 26/23 A2988 RMK A01 T02580226  RH  083%=      5-min Rain = 0
KTH1 050951Z 07004KT 26/23 A2988 RMK A01 T02570226  RH  083%=      5-min Rain = 0
KTH1 050952Z 07004KT 26/23 A2988 RMK A01 T02580226  RH  083%=      5-min Rain = 0
KTH1 050953Z 07004KT 26/23 A2988 RMK A01 T02580226  RH  083%=      5-min Rain = 0
KTH1 050954Z 07004KT 26/23 A2988 RMK A01 T02570226  RH  083%=      5-min Rain = 0
KTH1 050955Z 07003KT 26/23 A2988 RMK A01 T02580227  RH  083%=      5-min Rain = 0
KTH1 050956Z 08004KT 26/23 A2988 RMK A01 T02570226  RH  083%=      5-min Rain = 0
KTH1 050957Z 07004KT 26/23 A2988 RMK A01 T02570226  RH  083%=      5-min Rain = 0
KTH1 050958Z 08004KT 26/23 A2988 RMK A01 T02570226  RH  083%=      5-min Rain = 0
KTH1 050959Z 08003KT 26/23 A2988 RMK A01 T02560226  RH  084%=      5-min Rain = 0
KTH1 051000Z 07004KT 26/23 A2988 RMK A01 T02550226  RH  084%=      5-min Rain = 0
KTH1 051001Z 07004KT 26/23 A2988 RMK A01 T02550226  RH  084%=      5-min Rain = 0
KTH1 051002Z 07004KT 26/23 A2988 RMK A01 T02550226  RH  084%=      5-min Rain = 0
KTH1 051003Z 07003KT 25/23 A2988 RMK A01 T02540226  RH  084%=      5-min Rain = 0
KTH1 051004Z 07003KT 25/23 A2988 RMK A01 T02540226  RH  084%=      5-min Rain = 0
KTH1 051005Z 08003KT 25/23 A2987 RMK A01 T02540226  RH  085%=      5-min Rain = 0
KTH1 051006Z 08003KT 25/23 A2987 RMK A01 T02530226  RH  085%=      5-min Rain = 0
KTH1 051007Z 08003KT 25/23 A2987 RMK A01 T02530226  RH  085%=      5-min Rain = 0
KTH1 051008Z 08003KT 25/23 A2987 RMK A01 T02530226  RH  085%=      5-min Rain = 0
KTH1 051009Z 08003KT 25/23 A2987 RMK A01 T02520226  RH  085%=      5-min Rain = 0
KTH1 051010Z 08003KT 25/23 A2987 RMK A01 T02520226  RH  085%=      5-min Rain = 0
KTH1 051011Z 08004KT 25/23 A2987 RMK A01 T02520226  RH  085%=      5-min Rain = 0
KTH1 051012Z 08004KT 25/23 A2987 RMK A01 T02520226  RH  085%=      5-min Rain = 0
KTH1 051013Z 08003KT 25/23 A2987 RMK A01 T02520226  RH  086%=      5-min Rain = 0
KTH1 051014Z 07003KT 25/23 A2987 RMK A01 T02510225  RH  086%=      5-min Rain = 0
KTH1 051015Z 08003KT 25/23 A2987 RMK A01 T02510225  RH  086%=      5-min Rain = 0
KTH1 051016Z 07003KT 25/23 A2987 RMK A01 T02510225  RH  086%=      5-min Rain = 0
KTH1 051017Z 07003KT 25/23 A2987 RMK A01 T02510226  RH  086%=      5-min Rain = 0
KTH1 051018Z 07004KT 25/23 A2987 RMK A01 T02500226  RH  086%=      5-min Rain = 0
KTH1 051019Z 07003KT 25/23 A2987 RMK A01 T02500225  RH  086%=      5-min Rain = 0
KTH1 051020Z 07004KT 25/23 A2987 RMK A01 T02500226  RH  086%=      5-min Rain = 0
KTH1 051021Z 07003KT 25/23 A2987 RMK A01 T02490226  RH  087%=      5-min Rain = 0
KTH1 051022Z 08003KT 25/23 A2987 RMK A01 T02490226  RH  087%=      5-min Rain = 0
KTH1 051023Z 08003KT 25/23 A2987 RMK A01 T02490226  RH  087%=      5-min Rain = 0
KTH1 051024Z 08003KT 25/23 A2987 RMK A01 T02490225  RH  087%=      5-min Rain = 0
KTH1 051025Z 07003KT 25/23 A2987 RMK A01 T02480225  RH  087%=      5-min Rain = 0
KTH1 051026Z 07004KT 25/23 A2987 RMK A01 T02480225  RH  087%=      5-min Rain = 0
KTH1 051027Z 08003KT 25/23 A2987 RMK A01 T02480225  RH  087%=      5-min Rain = 0
KTH1 051028Z 07003KT 25/23 A2987 RMK A01 T02480225  RH  087%=      5-min Rain = 0
KTH1 051029Z 07003KT 25/23 A2987 RMK A01 T02470225  RH  088%=      5-min Rain = 0
KTH1 051030Z 08004KT 25/23 A2987 RMK A01 T02470226  RH  088%=      5-min Rain = 0
KTH1 051031Z 08003KT 25/23 A2987 RMK A01 T02470225  RH  088%=      5-min Rain = 0
KTH1 051032Z 08003KT 25/23 A2987 RMK A01 T02470225  RH  088%=      5-min Rain = 0
KTH1 051033Z 08003KT 25/23 A2987 RMK A01 T02470226  RH  088%=      5-min Rain = 0
KTH1 051034Z 08003KT 25/23 A2987 RMK A01 T02460226  RH  088%=      5-min Rain = 0
KTH1 051035Z 07003KT 25/23 A2988 RMK A01 T02460226  RH  088%=      5-min Rain = 0
KTH1 051036Z 07003KT 25/23 A2988 RMK A01 T02450225  RH  089%=      5-min Rain = 0
KTH1 051037Z 07003KT 25/23 A2988 RMK A01 T02450226  RH  089%=      5-min Rain = 0
KTH1 051038Z 07003KT 25/23 A2988 RMK A01 T02450226  RH  089%=      5-min Rain = 0
KTH1 051039Z 07003KT 25/23 A2988 RMK A01 T02450226  RH  089%=      5-min Rain = 0
KTH1 051040Z 06003KT 25/23 A2988 RMK A01 T02450226  RH  089%=      5-min Rain = 0
KTH1 051041Z 06003KT 25/23 A2988 RMK A01 T02450226  RH  089%=      5-min Rain = 0
KTH1 051042Z 05003KT 24/23 A2988 RMK A01 T02440225  RH  089%=      5-min Rain = 0
KTH1 051043Z 06002KT 24/23 A2988 RMK A01 T02440225  RH  089%=      5-min Rain = 0
KTH1 051044Z 05003KT 24/23 A2988 RMK A01 T02440225  RH  089%=      5-min Rain = 0
KTH1 051045Z 06003KT 24/23 A2988 RMK A01 T02440225  RH  089%=      5-min Rain = 0
KTH1 051046Z 05003KT 24/23 A2988 RMK A01 T02440225  RH  089%=      5-min Rain = 0
KTH1 051047Z 05003KT 24/23 A2988 RMK A01 T02440225  RH  089%=      5-min Rain = 0
KTH1 051048Z 05003KT 24/23 A2988 RMK A01 T02440225  RH  089%=      5-min Rain = 0
KTH1 051049Z 05003KT 24/23 A2988 RMK A01 T02440225  RH  090%=      5-min Rain = 0
KTH1 051050Z 05004KT 24/23 A2989 RMK A01 T02440226  RH  090%=      5-min Rain = 0
KTH1 051051Z 04004KT 24/23 A2989 RMK A01 T02440225  RH  090%=      5-min Rain = 0
KTH1 051052Z 04003KT 24/23 A2989 RMK A01 T02440226  RH  090%=      5-min Rain = 0
KTH1 051053Z 04003KT 24/23 A2989 RMK A01 T02440225  RH  090%=      5-min Rain = 0
KTH1 051054Z 04003KT 24/23 A2989 RMK A01 T02440226  RH  089%=      5-min Rain = 0
KTH1 051055Z 04003KT 24/23 A2989 RMK A01 T02440226  RH  089%=      5-min Rain = 0
KTH1 051056Z 03003KT 25/23 A2989 RMK A01 T02450226  RH  089%=      5-min Rain = 0
KTH1 051057Z 03003KT 25/23 A2989 RMK A01 T02450226  RH  089%=      5-min Rain = 0
KTH1 051058Z 03003KT 25/23 A2989 RMK A01 T02460226  RH  089%=      5-min Rain = 0
KTH1 051059Z 02002KT 25/23 A2989 RMK A01 T02450226  RH  089%=      5-min Rain = 0
KTH1 051100Z 01003KT 25/23 A2989 RMK A01 T02460226  RH  089%=      5-min Rain = 0
KTH1 051101Z 02003KT 25/23 A2989 RMK A01 T02460226  RH  089%=      5-min Rain = 0
KTH1 051102Z 01003KT 25/23 A2989 RMK A01 T02460226  RH  089%=      5-min Rain = 0
KTH1 051103Z 01002KT 25/23 A2989 RMK A01 T02460226  RH  089%=      5-min Rain = 0
KTH1 051104Z 35002KT 25/23 A2989 RMK A01 T02470227  RH  089%=      5-min Rain = 0
KTH1 051105Z 35002KT 25/23 A2989 RMK A01 T02460227  RH  089%=      5-min Rain = 0
KTH1 051106Z 32002KT 25/23 A2989 RMK A01 T02460227  RH  089%=      5-min Rain = 0
KTH1 051107Z 34002KT 25/23 A2989 RMK A01 T02460227  RH  089%=      5-min Rain = 0
KTH1 051108Z 32002KT 25/23 A2989 RMK A01 T02470228  RH  089%=      5-min Rain = 0
KTH1 051109Z 31002KT 25/23 A2989 RMK A01 T02470229  RH  089%=      5-min Rain = 0
KTH1 051110Z 32003KT 25/23 A299 RMK A01 T02480229  RH  089%=      5-min Rain = 0
KTH1 051111Z 31003KT 25/23 A299 RMK A01 T02480229  RH  089%=      5-min Rain = 0
KTH1 051112Z 31004KT 25/23 A299 RMK A01 T02490231  RH  090%=      5-min Rain = 0
KTH1 051113Z 31005KT 25/23 A299 RMK A01 T02490232  RH  090%=      5-min Rain = 0
KTH1 051114Z 30005KT 25/23 A299 RMK A01 T02500233  RH  090%=      5-min Rain = 0
KTH1 051115Z 31004KT 25/23 A299 RMK A01 T02500234  RH  090%=      5-min Rain = 0
KTH1 051116Z 31003KT 25/23 A299 RMK A01 T02500232  RH  090%=      5-min Rain = 0
KTH1 051117Z 31002KT 25/23 A299 RMK A01 T02510233  RH  090%=      5-min Rain = 0
KTH1 051118Z 31005KT 25/23 A299 RMK A01 T02500232  RH  090%=      5-min Rain = 0
KTH1 051119Z 31005KT 25/23 A299 RMK A01 T02510232  RH  089%=      5-min Rain = 0
KTH1 051120Z 31007KT 25/23 A299 RMK A01 T02510232  RH  089%=      5-min Rain = 0
KTH1 051121Z 31007KT 25/23 A2991 RMK A01 T02510233  RH  090%=      5-min Rain = 0
KTH1 051122Z 31008KT 25/24 A2991 RMK A01 T02510235  RH  090%=      5-min Rain = 0
KTH1 051123Z 31009KT 25/23 A2991 RMK A01 T02520234  RH  090%=      5-min Rain = 0
KTH1 051124Z 31012KT 25/23 A2991 RMK A01 T02520234  RH  090%=      5-min Rain = 0
KTH1 051125Z 31013KT 25/23 A2991 RMK A01 T02510232  RH  089%=      5-min Rain = 0
KTH1 051126Z 31014KT 25/23 A2991 RMK A01 T02510231  RH  089%=      5-min Rain = 0
KTH1 051127Z 31013KT 25/23 A2992 RMK A01 T02510231  RH  089%=      5-min Rain = 0
KTH1 051128Z 31015KT 25/23 A2992 RMK A01 T02510232  RH  089%=      5-min Rain = 0
KTH1 051129Z 31014KT 25/23 A2992 RMK A01 T02510232  RH  089%=      5-min Rain = 0
KTH1 051130Z 32012KT 25/23 A2992 RMK A01 T02520231  RH  088%=      5-min Rain = 0
KTH1 051131Z 32010KT 25/23 A2992 RMK A01 T02520229  RH  087%=      5-min Rain = 0
KTH1 051132Z 32010KT 25/23 A2992 RMK A01 T02520229  RH  087%=      5-min Rain = 0
KTH1 051133Z 31010KT 25/23 A2992 RMK A01 T02520228  RH  087%=      5-min Rain = 0
KTH1 051134Z 32010KT 25/23 A2992 RMK A01 T02520228  RH  087%=      5-min Rain = 0
KTH1 051135Z 31009KT 25/23 A2992 RMK A01 T02520229  RH  087%=      5-min Rain = 0
KTH1 051136Z 32010KT 25/23 A2992 RMK A01 T02530229  RH  086%=      5-min Rain = 0
KTH1 051137Z 32009KT 25/23 A2992 RMK A01 T02530228  RH  086%=      5-min Rain = 0
KTH1 051138Z 32010KT 25/23 A2993 RMK A01 T02540230  RH  087%=      5-min Rain = 0
KTH1 051139Z 32009KT 25/23 A2993 RMK A01 T02540228  RH  086%=      5-min Rain = 0
KTH1 051140Z 32008KT 25/23 A2993 RMK A01 T02540227  RH  085%=      5-min Rain = 0
KTH1 051141Z 32009KT 25/23 A2993 RMK A01 T02540228  RH  086%=      5-min Rain = 0
KTH1 051142Z 33009KT 25/23 A2993 RMK A01 T02540227  RH  085%=      5-min Rain = 0
KTH1 051143Z 33008KT 26/23 A2993 RMK A01 T02550226  RH  084%=      5-min Rain = 0
KTH1 051144Z 34007KT 26/23 A2993 RMK A01 T02550227  RH  084%=      5-min Rain = 0
KTH1 051145Z 34007G12KT 26/23 A2993 RMK A01 T02550226  RH  084%=      5-min Rain = 0
KTH1 051146Z 33007KT 26/23 A2993 RMK A01 T02550226  RH  084%=      5-min Rain = 0
KTH1 051147Z 34006G11KT 26/23 A2993 RMK A01 T02550226  RH  084%=      5-min Rain = 0
KTH1 051148Z 33005KT 26/23 A2993 RMK A01 T02550226  RH  084%=      5-min Rain = 0
KTH1 051149Z 32006KT 26/23 A2993 RMK A01 T02550226  RH  084%=      5-min Rain = 0
KTH1 051150Z 33009KT 26/23 A2993 RMK A01 T02560226  RH  083%=      5-min Rain = 0
KTH1 051151Z 33007G12KT 26/23 A2993 RMK A01 T02560226  RH  083%=      5-min Rain = 0
KTH1 051152Z 34009G14KT 26/23 A2993 RMK A01 T02560226  RH  083%=      5-min Rain = 0
KTH1 051153Z 36008KT 26/23 A2993 RMK A01 T02570225  RH  083%=      5-min Rain = 0
KTH1 051154Z 00008KT 26/23 A2993 RMK A01 T02570225  RH  082%=      5-min Rain = 0
KTH1 051155Z 01006KT 26/23 A2993 RMK A01 T02570225  RH  082%=      5-min Rain = 0
KTH1 051156Z 36009KT 26/22 A2993 RMK A01 T02570224  RH  082%=      5-min Rain = 0
KTH1 051157Z 35007KT 26/22 A2993 RMK A01 T02560224  RH  082%=      5-min Rain = 0
KTH1 051158Z 34007G12KT 26/23 A2993 RMK A01 T02570225  RH  083%=      5-min Rain = 0
KTH1 051159Z 34006KT 26/23 A2994 RMK A01 T02570225  RH  083%=      5-min Rain = 0
KTH1 051200Z 34008KT 26/23 A2994 RMK A01 T02560225  RH  083%=      5-min Rain = 0
KTH1 051201Z 35007KT 26/23 A2993 RMK A01 T02570225  RH  083%=      5-min Rain = 0
KTH1 051202Z 35007KT 26/23 A2993 RMK A01 T02570225  RH  082%=      5-min Rain = 0
KTH1 051203Z 00010KT 26/22 A2993 RMK A01 T02570224  RH  082%=      5-min Rain = 0
KTH1 051204Z 36008KT 26/22 A2993 RMK A01 T02570224  RH  082%=      5-min Rain = 0
KTH1 051205Z 36008KT 26/22 A2993 RMK A01 T02570224  RH  082%=      5-min Rain = 0
KTH1 051206Z 35008KT 26/22 A2993 RMK A01 T02570224  RH  082%=      5-min Rain = 0
KTH1 051207Z 35010KT 26/22 A2994 RMK A01 T02580224  RH  081%=      5-min Rain = 0
KTH1 051208Z 35008G13KT 26/23 A2994 RMK A01 T02580225  RH  082%=      5-min Rain = 0
KTH1 051209Z 35008KT 26/23 A2994 RMK A01 T02580225  RH  082%=      5-min Rain = 0
KTH1 051210Z 35008KT 26/22 A2994 RMK A01 T02590224  RH  081%=      5-min Rain = 0
KTH1 051211Z 36010KT 26/22 A2994 RMK A01 T02580224  RH  081%=      5-min Rain = 0
KTH1 051212Z 35010KT 26/22 A2994 RMK A01 T02580223  RH  081%=      5-min Rain = 0
KTH1 051213Z 35009G14KT 26/22 A2994 RMK A01 T02590223  RH  081%=      5-min Rain = 0
KTH1 051214Z 35012KT 26/22 A2994 RMK A01 T02590223  RH  080%=      5-min Rain = 0
KTH1 051215Z 35011G17KT 26/22 A2994 RMK A01 T02590223  RH  080%=      5-min Rain = 0
KTH1 051216Z 35013G18KT 26/22 A2994 RMK A01 T02600223  RH  080%=      5-min Rain = 0
KTH1 051217Z 00010KT 26/22 A2994 RMK A01 T02600222  RH  080%=      5-min Rain = 0
KTH1 051218Z 00010G15KT 26/22 A2993 RMK A01 T02600223  RH  080%=      5-min Rain = 0
KTH1 051219Z 34008G14KT 26/22 A2993 RMK A01 T02600223  RH  080%=      5-min Rain = 0
KTH1 051220Z 35009KT 26/22 A2993 RMK A01 T02600223  RH  080%=      5-min Rain = 0
KTH1 051221Z 36010KT 26/22 A2993 RMK A01 T02600222  RH  080%=      5-min Rain = 0
KTH1 051222Z 34010G15KT 26/22 A2993 RMK A01 T02600222  RH  080%=      5-min Rain = 0
KTH1 051223Z 35015KT 26/22 A2993 RMK A01 T02600221  RH  079%=      5-min Rain = 0
KTH1 051224Z 34011G16KT 26/22 A2993 RMK A01 T02600219  RH  078%=      5-min Rain = 0
KTH1 051225Z 34014G20KT 26/22 A2993 RMK A01 T02600220  RH  078%=      5-min Rain = 0
KTH1 051226Z 35013KT 26/22 A2993 RMK A01 T02600220  RH  078%=      5-min Rain = 0
KTH1 051227Z 35011G16KT 26/22 A2993 RMK A01 T02600220  RH  079%=      5-min Rain = 0
KTH1 051228Z 35015KT 26/22 A2993 RMK A01 T02590220  RH  079%=      5-min Rain = 0
KTH1 051229Z 35010G16KT 26/22 A2993 RMK A01 T02590220  RH  079%=      5-min Rain = 0
KTH1 051230Z 35010G15KT 26/22 A2993 RMK A01 T02590220  RH  079%=      5-min Rain = 0
KTH1 051231Z 35013KT 26/22 A2993 RMK A01 T02590220  RH  079%=      5-min Rain = 0
KTH1 051232Z 35010G16KT 26/22 A2993 RMK A01 T02590219  RH  078%=      5-min Rain = 0
KTH1 051233Z 35007KT 26/22 A2993 RMK A01 T02590218  RH  078%=      5-min Rain = 0
KTH1 051234Z 34012G18KT 26/22 A2993 RMK A01 T02580217  RH  078%=      5-min Rain = 0
KTH1 051235Z 35012G17KT 26/22 A2993 RMK A01 T02580215  RH  077%=      5-min Rain = 0
KTH1 051236Z 35010G17KT 26/21 A2993 RMK A01 T02570214  RH  077%=      5-min Rain = 0
KTH1 051237Z 35012G18KT 26/21 A2994 RMK A01 T02560213  RH  077%=      5-min Rain = 0
KTH1 051238Z 35010G15KT 26/21 A2994 RMK A01 T02560212  RH  077%=      5-min Rain = 0
KTH1 051239Z 35013KT 26/21 A2994 RMK A01 T02550212  RH  077%=      5-min Rain = 0
KTH1 051240Z 36009KT 25/21 A2994 RMK A01 T02540212  RH  077%=      5-min Rain = 0
KTH1 051241Z 36012KT 25/21 A2994 RMK A01 T02540211  RH  077%=      5-min Rain = 0
KTH1 051242Z 00016G22KT 25/21 A2994 RMK A01 T02530211  RH  077%=      5-min Rain = 0
KTH1 051243Z 01015KT 25/21 A2994 RMK A01 T02520210  RH  077%=      5-min Rain = 0
KTH1 051244Z 36013KT 25/21 A2994 RMK A01 T02510210  RH  078%=      5-min Rain = 0
KTH1 051245Z 00009KT 25/21 A2994 RMK A01 T02500210  RH  078%=      5-min Rain = 0
KTH1 051246Z 00010G16KT 25/21 A2994 RMK A01 T02490209  RH  078%=      5-min Rain = 0
KTH1 051247Z 01011G17KT 25/21 A2994 RMK A01 T02490209  RH  078%=      5-min Rain = 0
KTH1 051248Z 01010KT 25/21 A2994 RMK A01 T02480208  RH  079%=      5-min Rain = 0
KTH1 051249Z 00010KT 25/21 A2994 RMK A01 T02470208  RH  079%=      5-min Rain = 0
KTH1 051250Z 03009G14KT 25/21 A2994 RMK A01 T02470208  RH  079%=      5-min Rain = 0
KTH1 051251Z 35010KT 25/21 A2994 RMK A01 T02460208  RH  079%=      5-min Rain = 0
KTH1 051252Z 00012G22KT 25/21 A2994 RMK A01 T02450206  RH  079%=      5-min Rain = 0
KTH1 051253Z 01013G19KT 25/21 A2994 RMK A01 T02450205  RH  078%=      5-min Rain = 0
KTH1 051254Z 00010KT 25/21 A2994 RMK A01 T02450205  RH  079%=      5-min Rain = 0
KTH1 051255Z 01010G18KT 25/21 A2993 RMK A01 T02450206  RH  079%=      5-min Rain = 0
KTH1 051256Z 01011G16KT 24/21 A2993 RMK A01 T02440205  RH  079%=      5-min Rain = 0
KTH1 051257Z 01011G18KT 24/21 A2993 RMK A01 T02440205  RH  079%=      5-min Rain = 0
KTH1 051258Z 36011G16KT 24/20 A2993 RMK A01 T02430204  RH  079%=      5-min Rain = 0
KTH1 051259Z 01010G18KT 24/20 A2993 RMK A01 T02430204  RH  079%=      5-min Rain = 0
KTH1 051300Z 01014G21KT 24/20 A2993 RMK A01 T02430204  RH  079%=      5-min Rain = 0
KTH1 051301Z 00009KT 24/20 A2993 RMK A01 T02430204  RH  079%=      5-min Rain = 0
KTH1 051302Z 02014G20KT 24/20 A2994 RMK A01 T02430204  RH  079%=      5-min Rain = 0
KTH1 051303Z 01012G17KT 24/20 A2994 RMK A01 T02430204  RH  079%=      5-min Rain = 0
KTH1 051304Z 02011G17KT 24/20 A2994 RMK A01 T02420204  RH  079%=      5-min Rain = 0
KTH1 051305Z 02013KT 24/20 A2993 RMK A01 T02420204  RH  079%=      5-min Rain = 0
KTH1 051306Z 03009G16KT 24/20 A2993 RMK A01 T02420204  RH  079%=      5-min Rain = 0
KTH1 051307Z 02011G18KT 24/20 A2993 RMK A01 T02420204  RH  079%=      5-min Rain = 0
KTH1 051308Z 03011G16KT 24/20 A2993 RMK A01 T02420204  RH  079%=      5-min Rain = 0
KTH1 051309Z 02011KT 24/20 A2994 RMK A01 T02420204  RH  079%=      5-min Rain = 0
KTH1 051310Z 03011G16KT 24/20 A2994 RMK A01 T02420204  RH  079%=      5-min Rain = 0
KTH1 051311Z 03009KT 24/20 A2994 RMK A01 T02420204  RH  079%=      5-min Rain = 0
KTH1 051312Z 03013KT 24/20 A2993 RMK A01 T02420204  RH  079%=      5-min Rain = 0
KTH1 051313Z 03011KT 24/20 A2994 RMK A01 T02420204  RH  079%=      5-min Rain = 0
KTH1 051314Z 03009KT 24/20 A2994 RMK A01 T02420204  RH  079%=      5-min Rain = 0
KTH1 051315Z 04012KT 24/20 A2994 RMK A01 T02420204  RH  079%=      5-min Rain = 0
KTH1 051316Z 02009KT 24/20 A2994 RMK A01 T02420204  RH  079%=      5-min Rain = 0
KTH1 051317Z 03010G15KT 24/20 A2994 RMK A01 T02420204  RH  079%=      5-min Rain = 0
KTH1 051318Z 03008G16KT 24/20 A2994 RMK A01 T02420204  RH  079%=      5-min Rain = 0
KTH1 051319Z 03010G16KT 24/20 A2994 RMK A01 T02420204  RH  079%=      5-min Rain = 0
KTH1 051320Z 03008KT 24/20 A2994 RMK A01 T02420204  RH  079%=      5-min Rain = 0
KTH1 051321Z 03011G16KT 24/20 A2994 RMK A01 T02420203  RH  079%=      5-min Rain = 0
KTH1 051322Z 02013G18KT 24/20 A2994 RMK A01 T02420203  RH  079%=      5-min Rain = 0
KTH1 051323Z 02010G16KT 24/20 A2994 RMK A01 T02420202  RH  079%=      5-min Rain = 0
KTH1 051324Z 03012G18KT 24/20 A2994 RMK A01 T02420202  RH  079%=      5-min Rain = 0
KTH1 051325Z 03009G14KT 24/20 A2994 RMK A01 T02420202  RH  079%=      5-min Rain = 0
KTH1 051326Z 03011KT 24/20 A2994 RMK A01 T02420203  RH  079%=      5-min Rain = 0
KTH1 051327Z 02009KT 24/20 A2994 RMK A01 T02420203  RH  079%=      5-min Rain = 0
KTH1 051328Z 04010KT 24/20 A2994 RMK A01 T02420203  RH  079%=      5-min Rain = 0
KTH1 051329Z 03009KT 24/20 A2994 RMK A01 T02420202  RH  079%=      5-min Rain = 0
KTH1 051330Z 03009KT 24/20 A2994 RMK A01 T02420202  RH  078%=      5-min Rain = 0
KTH1 051331Z 04010KT 24/20 A2994 RMK A01 T02420201  RH  078%=      5-min Rain = 0
KTH1 051332Z 03013G18KT 24/20 A2994 RMK A01 T02420201  RH  078%=      5-min Rain = 0
KTH1 051333Z 03012G17KT 24/20 A2994 RMK A01 T02420201  RH  078%=      5-min Rain = 0
KTH1 051334Z 03009KT 24/20 A2994 RMK A01 T02420201  RH  078%=      5-min Rain = 0
KTH1 051335Z 04008KT 24/20 A2994 RMK A01 T02420201  RH  078%=      5-min Rain = 0
KTH1 051336Z 03007KT 24/20 A2994 RMK A01 T02420202  RH  078%=      5-min Rain = 0
KTH1 051337Z 03008KT 24/20 A2994 RMK A01 T02410201  RH  078%=      5-min Rain = 0
KTH1 051338Z 04010KT 24/20 A2994 RMK A01 T02410201  RH  078%=      5-min Rain = 0
KTH1 051339Z 04010G15KT 24/20 A2994 RMK A01 T02420200  RH  078%=      5-min Rain = 0
KTH1 051340Z 03011KT 24/20 A2994 RMK A01 T02420200  RH  077%=      5-min Rain = 0
KTH1 051341Z 03009G14KT 24/20 A2994 RMK A01 T02410199  RH  077%=      5-min Rain = 0
KTH1 051342Z 03009G16KT 24/20 A2994 RMK A01 T02410199  RH  077%=      5-min Rain = 0
KTH1 051343Z 03011G17KT 24/20 A2994 RMK A01 T02420199  RH  077%=      5-min Rain = 0
KTH1 051344Z 02011KT 24/20 A2994 RMK A01 T02410199  RH  077%=      5-min Rain = 0
KTH1 051345Z 03011KT 24/20 A2994 RMK A01 T02410198  RH  077%=      5-min Rain = 0
KTH1 051346Z 03010G15KT 24/20 A2994 RMK A01 T02410198  RH  077%=      5-min Rain = 0
KTH1 051347Z 02012KT 24/20 A2994 RMK A01 T02420198  RH  077%=      5-min Rain = 0
KTH1 051348Z 03011G17KT 24/20 A2994 RMK A01 T02410198  RH  077%=      5-min Rain = 0
KTH1 051349Z 04011KT 24/20 A2994 RMK A01 T02410198  RH  077%=      5-min Rain = 0
KTH1 051350Z 03011KT 24/20 A2994 RMK A01 T02410198  RH  077%=      5-min Rain = 0
KTH1 051351Z 04010KT 24/20 A2994 RMK A01 T02410198  RH  077%=      5-min Rain = 0
KTH1 051352Z 04012KT 24/20 A2993 RMK A01 T02410198  RH  077%=      5-min Rain = 0
KTH1 051353Z 05011KT 24/20 A2993 RMK A01 T02410198  RH  077%=      5-min Rain = 0
KTH1 051354Z 05009G14KT 24/20 A2993 RMK A01 T02420199  RH  077%=      5-min Rain = 0
KTH1 051355Z 04009KT 24/20 A2993 RMK A01 T02410199  RH  077%=      5-min Rain = 0
KTH1 051356Z 04013G18KT 24/20 A2993 RMK A01 T02410198  RH  077%=      5-min Rain = 0
KTH1 051357Z 04011G18KT 24/20 A2993 RMK A01 T02410198  RH  076%=      5-min Rain = 0
KTH1 051358Z 05010KT 24/20 A2993 RMK A01 T02410198  RH  077%=      5-min Rain = 0
KTH1 051359Z 04011G16KT 24/20 A2993 RMK A01 T02420199  RH  077%=      5-min Rain = 0
KTH1 051400Z 05008KT 24/20 A2993 RMK A01 T02410198  RH  077%=      5-min Rain = 0
KTH1 051401Z 04009KT 24/20 A2993 RMK A01 T02410199  RH  077%=      5-min Rain = 0
KTH1 051402Z 05007KT 24/20 A2993 RMK A01 T02410199  RH  077%=      5-min Rain = 0
KTH1 051403Z 05008KT 24/20 A2993 RMK A01 T02410199  RH  078%=      5-min Rain = 0
KTH1 051404Z 06010G15KT 24/20 A2993 RMK A01 T02410199  RH  078%=      5-min Rain = 0
KTH1 051405Z 05011KT 24/20 A2993 RMK A01 T02410199  RH  077%=      5-min Rain = 0
KTH1 051406Z 05010KT 24/20 A2993 RMK A01 T02400198  RH  077%=      5-min Rain = 0
KTH1 051407Z 06008G14KT 24/20 A2993 RMK A01 T02400199  RH  078%=      5-min Rain = 0
KTH1 051408Z 06013KT 24/20 A2993 RMK A01 T02400199  RH  078%=      5-min Rain = 0
KTH1 051409Z 06010KT 24/20 A2993 RMK A01 T02400198  RH  077%=      5-min Rain = 0
KTH1 051410Z 05011KT 24/20 A2993 RMK A01 T02400198  RH  077%=      5-min Rain = 0
KTH1 051411Z 05009KT 24/20 A2993 RMK A01 T02400198  RH  077%=      5-min Rain = 0
KTH1 051412Z 04007G12KT 24/20 A2993 RMK A01 T02400199  RH  078%=      5-min Rain = 0
KTH1 051413Z 04008KT 24/20 A2993 RMK A01 T02390198  RH  078%=      5-min Rain = 0
KTH1 051414Z 04006KT 24/20 A2993 RMK A01 T02390198  RH  078%=      5-min Rain = 0
KTH1 051415Z 04008KT 24/20 A2993 RMK A01 T02400199  RH  078%=      5-min Rain = 0
KTH1 051416Z 04007KT 24/20 A2994 RMK A01 T02390198  RH  078%=      5-min Rain = 0
KTH1 051417Z 03007G13KT 24/20 A2994 RMK A01 T02390199  RH  078%=      5-min Rain = 0
KTH1 051418Z 03008KT 24/20 A2994 RMK A01 T02390199  RH  078%=      5-min Rain = 0
KTH1 051419Z 03006KT 24/20 A2994 RMK A01 T02390199  RH  078%=      5-min Rain = 0
KTH1 051420Z 03008KT 24/20 A2994 RMK A01 T02390199  RH  078%=      5-min Rain = 0
KTH1 051421Z 04007KT 24/20 A2994 RMK A01 T02390199  RH  078%=      5-min Rain = 0
KTH1 051422Z 04007KT 24/20 A2994 RMK A01 T02390199  RH  078%=      5-min Rain = 0
KTH1 051423Z 05008KT 24/20 A2994 RMK A01 T02390200  RH  079%=      5-min Rain = 0
KTH1 051424Z 06009KT 24/20 A2994 RMK A01 T02390200  RH  079%=      5-min Rain = 0
KTH1 051425Z 06008KT 24/20 A2994 RMK A01 T02390200  RH  079%=      5-min Rain = 0
KTH1 051426Z 05007KT 24/20 A2993 RMK A01 T02390200  RH  079%=      5-min Rain = 0
KTH1 051427Z 06006KT 24/20 A2993 RMK A01 T02390201  RH  079%=      5-min Rain = 0
KTH1 051428Z 06007KT 24/20 A2993 RMK A01 T02390201  RH  079%=      5-min Rain = 0
KTH1 051429Z 05009KT 24/20 A2993 RMK A01 T02390201  RH  079%=      5-min Rain = 0
KTH1 051430Z 06009KT 24/20 A2993 RMK A01 T02390201  RH  079%=      5-min Rain = 0
KTH1 051431Z 05007KT 24/20 A2994 RMK A01 T02390202  RH  080%=      5-min Rain = 0
KTH1 051432Z 06008KT 24/20 A2994 RMK A01 T02390202  RH  080%=      5-min Rain = 0
KTH1 051433Z 06006KT 24/20 A2994 RMK A01 T02390202  RH  080%=      5-min Rain = 0
KTH1 051434Z 07005KT 24/20 A2994 RMK A01 T02390202  RH  080%=      5-min Rain = 0
KTH1 051435Z 07006KT 24/20 A2994 RMK A01 T02390202  RH  080%=      5-min Rain = 0
KTH1 051436Z 07006KT 24/20 A2994 RMK A01 T02390203  RH  080%=      5-min Rain = 0
KTH1 051437Z 07005KT 24/20 A2994 RMK A01 T02390203  RH  081%=      5-min Rain = 0
KTH1 051438Z 07006G11KT 24/20 A2994 RMK A01 T02390204  RH  081%=      5-min Rain = 0
KTH1 051439Z 07007KT 24/20 A2994 RMK A01 T02390203  RH  080%=      5-min Rain = 0
KTH1 051440Z 06008KT 24/20 A2994 RMK A01 T02390203  RH  080%=      5-min Rain = 0
KTH1 051441Z 07006KT 24/20 A2994 RMK A01 T02390203  RH  080%=      5-min Rain = 0
KTH1 051442Z 08008KT 24/20 A2994 RMK A01 T02390204  RH  080%=      5-min Rain = 0
KTH1 051443Z 08008KT 24/20 A2994 RMK A01 T02400203  RH  080%=      5-min Rain = 0
KTH1 051444Z 07010KT 24/20 A2994 RMK A01 T02400203  RH  080%=      5-min Rain = 0
KTH1 051445Z 08009KT 24/20 A2994 RMK A01 T02400202  RH  079%=      5-min Rain = 0
KTH1 051446Z 07008KT 24/20 A2994 RMK A01 T02400203  RH  080%=      5-min Rain = 0
KTH1 051447Z 07009KT 24/20 A2994 RMK A01 T02400203  RH  080%=      5-min Rain = 0
KTH1 051448Z 07009KT 24/20 A2994 RMK A01 T02400203  RH  080%=      5-min Rain = 0
KTH1 051449Z 07009KT 24/20 A2994 RMK A01 T02400203  RH  080%=      5-min Rain = 0
KTH1 051450Z 07011KT 24/20 A2994 RMK A01 T02400203  RH  080%=      5-min Rain = 0
KTH1 051451Z 06010KT 24/20 A2994 RMK A01 T02410203  RH  080%=      5-min Rain = 0
KTH1 051452Z 07011KT 24/20 A2994 RMK A01 T02400204  RH  080%=      5-min Rain = 0
KTH1 051453Z 06013KT 24/20 A2994 RMK A01 T02410204  RH  080%=      5-min Rain = 0
KTH1 051454Z 06010KT 24/20 A2993 RMK A01 T02400203  RH  080%=      5-min Rain = 0
KTH1 051455Z 07009KT 24/20 A2993 RMK A01 T02400204  RH  080%=      5-min Rain = 0
KTH1 051456Z 07012KT 24/20 A2993 RMK A01 T02400204  RH  080%=      5-min Rain = 0
KTH1 051457Z 06010KT 24/20 A2993 RMK A01 T02400204  RH  080%=      5-min Rain = 0
KTH1 051458Z 07008KT 24/20 A2993 RMK A01 T02390203  RH  080%=      5-min Rain = 0
KTH1 051459Z 06009KT 24/20 A2993 RMK A01 T02390204  RH  081%=      5-min Rain = 0
KTH1 051500Z 07008KT 24/21 A2993 RMK A01 T02390205  RH  081%=      5-min Rain = 0
KTH1 051501Z 07008KT 24/21 A2993 RMK A01 T02390205  RH  081%=      5-min Rain = 0
KTH1 051502Z 08007KT 24/21 A2993 RMK A01 T02390205  RH  081%=      5-min Rain = 0
KTH1 051503Z 06006KT 24/21 A2993 RMK A01 T02390206  RH  082%=      5-min Rain = 0
KTH1 051504Z 06007KT 24/21 A2993 RMK A01 T02390206  RH  082%=      5-min Rain = 0
KTH1 051505Z 05005KT 24/21 A2993 RMK A01 T02400206  RH  081%=      5-min Rain = 0
KTH1 051506Z 06004KT 24/21 A2993 RMK A01 T02400207  RH  082%=      5-min Rain = 0
KTH1 051507Z 06005KT 24/21 A2993 RMK A01 T02410206  RH  081%=      5-min Rain = 0
KTH1 051508Z 07005KT 24/21 A2993 RMK A01 T02410207  RH  081%=      5-min Rain = 0
KTH1 051509Z 08006KT 24/21 A2993 RMK A01 T02410206  RH  081%=      5-min Rain = 0
KTH1 051510Z 07005KT 24/21 A2993 RMK A01 T02410206  RH  081%=      5-min Rain = 0
KTH1 051511Z 08005KT 24/21 A2993 RMK A01 T02410206  RH  081%=      5-min Rain = 0
KTH1 051512Z 09006KT 24/21 A2993 RMK A01 T02420206  RH  081%=      5-min Rain = 0
KTH1 051513Z 08006KT 24/21 A2993 RMK A01 T02410205  RH  080%=      5-min Rain = 0
KTH1 051514Z 07005KT 24/21 A2993 RMK A01 T02410205  RH  080%=      5-min Rain = 0
KTH1 051515Z 08004KT 24/21 A2994 RMK A01 T02420206  RH  080%=      5-min Rain = 0
KTH1 051516Z 09005KT 24/21 A2994 RMK A01 T02420205  RH  080%=      5-min Rain = 0
KTH1 051517Z 09005KT 24/21 A2994 RMK A01 T02430205  RH  079%=      5-min Rain = 0
KTH1 051518Z 08006KT 24/20 A2994 RMK A01 T02430204  RH  079%=      5-min Rain = 0
KTH1 051519Z 08004KT 24/21 A2994 RMK A01 T02440205  RH  079%=      5-min Rain = 0
KTH1 051520Z 08004KT 24/21 A2994 RMK A01 T02440206  RH  079%=      5-min Rain = 0
KTH1 051521Z 08004KT 25/21 A2994 RMK A01 T02450205  RH  078%=      5-min Rain = 0
KTH1 051522Z 07005KT 25/21 A2994 RMK A01 T02450205  RH  078%=      5-min Rain = 0
KTH1 051523Z 07006KT 25/21 A2994 RMK A01 T02450205  RH  078%=      5-min Rain = 0
KTH1 051524Z 06004KT 25/20 A2994 RMK A01 T02460204  RH  078%=      5-min Rain = 0
KTH1 051525Z 07005KT 25/21 A2994 RMK A01 T02460205  RH  078%=      5-min Rain = 0
KTH1 051526Z 07005KT 25/21 A2994 RMK A01 T02450205  RH  078%=      5-min Rain = 0
KTH1 051527Z 06006KT 25/21 A2994 RMK A01 T02460205  RH  078%=      5-min Rain = 0
KTH1 051528Z 07005KT 25/21 A2994 RMK A01 T02460205  RH  078%=      5-min Rain = 0
KTH1 051529Z 08006KT 25/20 A2994 RMK A01 T02460204  RH  077%=      5-min Rain = 0
KTH1 051530Z 07006KT 25/20 A2994 RMK A01 T02460204  RH  077%=      5-min Rain = 0
KTH1 051531Z 08007KT 25/20 A2994 RMK A01 T02460203  RH  077%=      5-min Rain = 0
KTH1 051532Z 07007KT 25/20 A2994 RMK A01 T02460203  RH  077%=      5-min Rain = 0
KTH1 051533Z 07007KT 25/20 A2994 RMK A01 T02460203  RH  077%=      5-min Rain = 0
KTH1 051534Z 07006KT 25/20 A2994 RMK A01 T02450202  RH  077%=      5-min Rain = 0
KTH1 051535Z 07005KT 25/20 A2994 RMK A01 T02450202  RH  077%=      5-min Rain = 0
KTH1 051536Z 08003KT 25/20 A2994 RMK A01 T02450203  RH  077%=      5-min Rain = 0
KTH1 051537Z 06004KT 25/20 A2994 RMK A01 T02450203  RH  077%=      5-min Rain = 0
KTH1 051538Z 05006KT 25/20 A2994 RMK A01 T02450200  RH  076%=      5-min Rain = 0
KTH1 051539Z 06005KT 25/20 A2994 RMK A01 T02450198  RH  075%=      5-min Rain = 0
KTH1 051540Z 07008KT 25/20 A2994 RMK A01 T02450199  RH  075%=      5-min Rain = 0
KTH1 051541Z 09004KT 25/20 A2994 RMK A01 T02450199  RH  076%=      5-min Rain = 0
KTH1 051542Z 10003KT 25/20 A2994 RMK A01 T02450200  RH  076%=      5-min Rain = 0
KTH1 051543Z 10004KT 25/20 A2994 RMK A01 T02450202  RH  077%=      5-min Rain = 0
KTH1 051544Z 11005KT 25/20 A2994 RMK A01 T02450201  RH  076%=      5-min Rain = 0
KTH1 051545Z 09005KT 25/20 A2994 RMK A01 T02450201  RH  077%=      5-min Rain = 0
KTH1 051546Z 09006KT 25/20 A2994 RMK A01 T02450202  RH  077%=      5-min Rain = 0
KTH1 051547Z 11005KT 25/20 A2994 RMK A01 T02450202  RH  077%=      5-min Rain = 0
KTH1 051548Z 10006KT 25/20 A2994 RMK A01 T02450200  RH  076%=      5-min Rain = 0
KTH1 051549Z 09006KT 25/20 A2994 RMK A01 T02450201  RH  076%=      5-min Rain = 0
KTH1 051550Z 09008KT 25/20 A2994 RMK A01 T02450202  RH  077%=      5-min Rain = 0
KTH1 051551Z 09007KT 25/20 A2994 RMK A01 T02450201  RH  076%=      5-min Rain = 0
KTH1 051552Z 08006KT 25/20 A2994 RMK A01 T02450201  RH  077%=      5-min Rain = 0
KTH1 051553Z 09006KT 25/20 A2994 RMK A01 T02450201  RH  077%=      5-min Rain = 0
KTH1 051554Z 08005KT 25/20 A2994 RMK A01 T02450200  RH  076%=      5-min Rain = 0
KTH1 051555Z 07004KT 25/20 A2994 RMK A01 T02450201  RH  077%=      5-min Rain = 0
KTH1 051556Z 08004KT 25/20 A2994 RMK A01 T02450201  RH  077%=      5-min Rain = 0
KTH1 051557Z 09005KT 25/20 A2994 RMK A01 T02450201  RH  076%=      5-min Rain = 0
KTH1 051558Z 08003KT 25/20 A2994 RMK A01 T02450201  RH  076%=      5-min Rain = 0
KTH1 051559Z 08005KT 25/20 A2994 RMK A01 T02450200  RH  076%=      5-min Rain = 0
KTH1 051600Z 09005KT 25/20 A2994 RMK A01 T02460199  RH  075%=      5-min Rain = 0
KTH1 051601Z 08004KT 25/20 A2994 RMK A01 T02460200  RH  076%=      5-min Rain = 0
KTH1 051602Z 10003KT 25/20 A2994 RMK A01 T02460199  RH  075%=      5-min Rain = 0
KTH1 051603Z 12003KT 25/20 A2994 RMK A01 T02460201  RH  076%=      5-min Rain = 0
KTH1 051604Z 11004KT 25/20 A2994 RMK A01 T02470200  RH  075%=      5-min Rain = 0
KTH1 051605Z 10004KT 25/20 A2994 RMK A01 T02470199  RH  075%=      5-min Rain = 0
KTH1 051606Z 08003KT 25/20 A2994 RMK A01 T02470199  RH  075%=      5-min Rain = 0
KTH1 051607Z 09004KT 25/20 A2995 RMK A01 T02470198  RH  074%=      5-min Rain = 0
KTH1 051608Z 10003KT 25/20 A2994 RMK A01 T02480199  RH  074%=      5-min Rain = 0
KTH1 051609Z 09003KT 25/20 A2994 RMK A01 T02480200  RH  075%=      5-min Rain = 0
KTH1 051610Z 09003KT 25/20 A2994 RMK A01 T02480199  RH  074%=      5-min Rain = 0
KTH1 051611Z 12004KT 25/20 A2994 RMK A01 T02480200  RH  075%=      5-min Rain = 0
KTH1 051612Z 11004KT 25/20 A2994 RMK A01 T02490200  RH  074%=      5-min Rain = 0
KTH1 051613Z 10003KT 25/20 A2994 RMK A01 T02490200  RH  074%=      5-min Rain = 0
KTH1 051614Z 08003KT 25/20 A2995 RMK A01 T02490199  RH  074%=      5-min Rain = 0
KTH1 051615Z 06003KT 25/20 A2995 RMK A01 T02490200  RH  074%=      5-min Rain = 0
KTH1 051616Z 08002KT 25/20 A2995 RMK A01 T02500202  RH  075%=      5-min Rain = 0
KTH1 051617Z 08003KT 25/20 A2994 RMK A01 T02500202  RH  074%=      5-min Rain = 0
KTH1 051618Z 09003KT 25/20 A2994 RMK A01 T02510201  RH  074%=      5-min Rain = 0
KTH1 051619Z 10004KT 25/20 A2995 RMK A01 T02520201  RH  073%=      5-min Rain = 0
KTH1 051620Z 09004KT 25/20 A2995 RMK A01 T02520199  RH  073%=      5-min Rain = 0
KTH1 051621Z 09004KT 25/20 A2995 RMK A01 T02520199  RH  073%=      5-min Rain = 0
KTH1 051622Z 10002KT 25/20 A2995 RMK A01 T02510199  RH  073%=      5-min Rain = 0
KTH1 051623Z 10003KT 25/20 A2995 RMK A01 T02510200  RH  073%=      5-min Rain = 0
KTH1 051624Z 10004KT 25/20 A2995 RMK A01 T02510200  RH  073%=      5-min Rain = 0
KTH1 051625Z 12004KT 25/20 A2995 RMK A01 T02520199  RH  073%=      5-min Rain = 0
KTH1 051626Z 08003KT 25/20 A2995 RMK A01 T02520201  RH  073%=      5-min Rain = 0
KTH1 051627Z 07002KT 25/20 A2995 RMK A01 T02520200  RH  073%=      5-min Rain = 0
KTH1 051628Z 09004KT 25/20 A2995 RMK A01 T02520202  RH  074%=      5-min Rain = 0
KTH1 051629Z 10004KT 25/20 A2995 RMK A01 T02530199  RH  072%=      5-min Rain = 0
KTH1 051630Z 09002KT 25/20 A2995 RMK A01 T02530200  RH  073%=      5-min Rain = 0
KTH1 051631Z 06003KT 25/20 A2995 RMK A01 T02530203  RH  074%=      5-min Rain = 0
KTH1 051632Z 07002KT 25/20 A2995 RMK A01 T02530201  RH  073%=      5-min Rain = 0
KTH1 051633Z 07003KT 25/20 A2995 RMK A01 T02530202  RH  073%=      5-min Rain = 0
KTH1 051634Z 07003KT 25/20 A2995 RMK A01 T02530200  RH  072%=      5-min Rain = 0
KTH1 051635Z 09002KT 25/20 A2995 RMK A01 T02530202  RH  073%=      5-min Rain = 0
KTH1 051636Z 08002KT 25/20 A2995 RMK A01 T02540202  RH  073%=      5-min Rain = 0
KTH1 051637Z 09003KT 25/21 A2995 RMK A01 T02540205  RH  074%=      5-min Rain = 0
KTH1 051638Z 09004KT 26/20 A2995 RMK A01 T02550203  RH  073%=      5-min Rain = 0
KTH1 051639Z 08004KT 26/20 A2995 RMK A01 T02550204  RH  073%=      5-min Rain = 0
KTH1 051640Z 10004KT 26/20 A2995 RMK A01 T02550203  RH  073%=      5-min Rain = 0
KTH1 051641Z 09003KT 25/20 A2995 RMK A01 T02540204  RH  074%=      5-min Rain = 0
KTH1 051642Z 08004KT 26/20 A2995 RMK A01 T02550204  RH  074%=      5-min Rain = 0
KTH1 051643Z 07004KT 26/20 A2995 RMK A01 T02550204  RH  073%=      5-min Rain = 0
KTH1 051644Z 07003KT 26/21 A2995 RMK A01 T02550206  RH  074%=      5-min Rain = 0
KTH1 051645Z 06004KT 26/21 A2995 RMK A01 T02550205  RH  074%=      5-min Rain = 0
KTH1 051646Z 07004KT 26/21 A2995 RMK A01 T02550205  RH  074%=      5-min Rain = 0
KTH1 051647Z 07003KT 26/20 A2994 RMK A01 T02550204  RH  073%=      5-min Rain = 0
KTH1 051648Z 07004KT 26/21 A2994 RMK A01 T02550205  RH  074%=      5-min Rain = 0
KTH1 051649Z 05002KT 26/21 A2994 RMK A01 T02550205  RH  074%=      5-min Rain = 0
KTH1 051650Z 04003KT 26/21 A2995 RMK A01 T02560207  RH  074%=      5-min Rain = 0
KTH1 051651Z 05003KT 26/21 A2995 RMK A01 T02560205  RH  073%=      5-min Rain = 0
KTH1 051652Z 07002KT 26/20 A2995 RMK A01 T02560204  RH  073%=      5-min Rain = 0
KTH1 051653Z 10001KT 26/21 A2995 RMK A01 T02560206  RH  074%=      5-min Rain = 0
KTH1 051654Z 07001KT 26/21 A2995 RMK A01 T02570208  RH  075%=      5-min Rain = 0
KTH1 051655Z 10002KT 26/21 A2995 RMK A01 T02580209  RH  074%=      5-min Rain = 0
KTH1 051656Z 07003KT 26/21 A2995 RMK A01 T02590207  RH  073%=      5-min Rain = 0
KTH1 051657Z 06002KT 26/21 A2995 RMK A01 T02590207  RH  073%=      5-min Rain = 0
KTH1 051658Z 07002KT 26/21 A2995 RMK A01 T02590208  RH  073%=      5-min Rain = 0
KTH1 051659Z 04003KT 26/21 A2995 RMK A01 T02590208  RH  073%=      5-min Rain = 0
KTH1 051700Z 03002KT 26/21 A2995 RMK A01 T02590207  RH  073%=      5-min Rain = 0
KTH1 051701Z 03002KT 26/21 A2995 RMK A01 T02590207  RH  073%=      5-min Rain = 0
KTH1 051702Z 04003KT 26/21 A2995 RMK A01 T02590207  RH  073%=      5-min Rain = 0
KTH1 051703Z 08003KT 26/21 A2995 RMK A01 T02580207  RH  073%=      5-min Rain = 0
KTH1 051704Z 08003KT 26/21 A2995 RMK A01 T02580207  RH  074%=      5-min Rain = 0
KTH1 051705Z 07002KT 26/21 A2995 RMK A01 T02580206  RH  073%=      5-min Rain = 0
KTH1 051706Z 05001KT 26/21 A2995 RMK A01 T02580207  RH  073%=      5-min Rain = 0
KTH1 051707Z 09002KT 26/21 A2995 RMK A01 T02580208  RH  074%=      5-min Rain = 0
KTH1 051708Z 09002KT 26/21 A2995 RMK A01 T02580208  RH  074%=      5-min Rain = 0
KTH1 051709Z 06001KT 26/21 A2995 RMK A01 T02590209  RH  074%=      5-min Rain = 0
KTH1 051710Z 03000KT 26/21 A2995 RMK A01 T02600208  RH  073%=      5-min Rain = 0
KTH1 051711Z 00000KT 26/21 A2995 RMK A01 T02600206  RH  072%=      5-min Rain = 0
KTH1 051712Z 00000KT 26/21 A2995 RMK A01 T02600206  RH  072%=      5-min Rain = 0
KTH1 051713Z 32001KT 26/21 A2995 RMK A01 T02600206  RH  072%=      5-min Rain = 0
KTH1 051714Z 35001KT 26/21 A2995 RMK A01 T02610207  RH  072%=      5-min Rain = 0
KTH1 051715Z 07001KT 26/21 A2995 RMK A01 T02600207  RH  072%=      5-min Rain = 0
KTH1 051716Z 09001KT 26/21 A2995 RMK A01 T02610208  RH  072%=      5-min Rain = 0
KTH1 051717Z 09001KT 26/21 A2995 RMK A01 T02610206  RH  072%=      5-min Rain = 0
KTH1 051718Z 08001KT 26/21 A2995 RMK A01 T02610207  RH  072%=      5-min Rain = 0
KTH1 051719Z 09000KT 26/21 A2995 RMK A01 T02620209  RH  073%=      5-min Rain = 0
KTH1 051720Z 27000KT 26/21 A2995 RMK A01 T02630208  RH  072%=      5-min Rain = 0
KTH1 051721Z 33001KT 26/21 A2995 RMK A01 T02640208  RH  071%=      5-min Rain = 0
KTH1 051722Z 35002KT 27/21 A2995 RMK A01 T02650209  RH  071%=      5-min Rain = 0
KTH1 051723Z 35003KT 27/21 A2995 RMK A01 T02650210  RH  072%=      5-min Rain = 0
KTH1 051724Z 01003KT 27/21 A2995 RMK A01 T02650210  RH  072%=      5-min Rain = 0
KTH1 051725Z 36002KT 26/21 A2995 RMK A01 T02640208  RH  071%=      5-min Rain = 0
KTH1 051726Z 36001KT 27/21 A2995 RMK A01 T02650209  RH  071%=      5-min Rain = 0
KTH1 051727Z 34001KT 27/21 A2995 RMK A01 T02650208  RH  071%=      5-min Rain = 0
KTH1 051728Z 03001KT 27/21 A2995 RMK A01 T02650208  RH  071%=      5-min Rain = 0
KTH1 051729Z 29001KT 27/21 A2995 RMK A01 T02660209  RH  071%=      5-min Rain = 0
KTH1 051730Z 32001KT 27/21 A2995 RMK A01 T02670209  RH  071%=      5-min Rain = 0
KTH1 051731Z 01001KT 27/21 A2995 RMK A01 T02680209  RH  070%=      5-min Rain = 0
KTH1 051732Z 06001KT 27/21 A2995 RMK A01 T02680211  RH  071%=      5-min Rain = 0
KTH1 051733Z 10001KT 27/21 A2995 RMK A01 T02690211  RH  070%=      5-min Rain = 0
KTH1 051734Z 09001KT 27/21 A2995 RMK A01 T02700210  RH  069%=      5-min Rain = 0
KTH1 051735Z 07004KT 27/21 A2995 RMK A01 T02700209  RH  069%=      5-min Rain = 0
KTH1 051736Z 07002KT 27/21 A2995 RMK A01 T02700209  RH  069%=      5-min Rain = 0
KTH1 051737Z 06003KT 27/21 A2995 RMK A01 T02700211  RH  070%=      5-min Rain = 0
KTH1 051738Z 06003KT 27/21 A2995 RMK A01 T02700210  RH  070%=      5-min Rain = 0
KTH1 051739Z 07002KT 27/21 A2995 RMK A01 T02700211  RH  070%=      5-min Rain = 0
KTH1 051740Z 09002KT 27/21 A2995 RMK A01 T02700208  RH  069%=      5-min Rain = 0
KTH1 051741Z 11002KT 27/21 A2995 RMK A01 T02690209  RH  070%=      5-min Rain = 0
KTH1 051742Z 10001KT 27/21 A2995 RMK A01 T02680209  RH  070%=      5-min Rain = 0
KTH1 051743Z 11000KT 27/21 A2995 RMK A01 T02690212  RH  071%=      5-min Rain = 0
KTH1 051744Z 08001KT 27/21 A2995 RMK A01 T02720212  RH  070%=      5-min Rain = 0
KTH1 051745Z 01000KT 27/21 A2995 RMK A01 T02740212  RH  069%=      5-min Rain = 0
KTH1 051746Z 06002KT 28/21 A2995 RMK A01 T02750214  RH  069%=      5-min Rain = 0
KTH1 051747Z 06004KT 28/21 A2995 RMK A01 T02780214  RH  068%=      5-min Rain = 0
KTH1 051748Z 05004KT 28/21 A2995 RMK A01 T02790212  RH  067%=      5-min Rain = 0
KTH1 051749Z 05003KT 28/21 A2995 RMK A01 T02790211  RH  066%=      5-min Rain = 0
KTH1 051750Z 07006KT 28/21 A2994 RMK A01 T02780212  RH  068%=      5-min Rain = 0
KTH1 051751Z 09004KT 28/21 A2994 RMK A01 T02780213  RH  068%=      5-min Rain = 0
KTH1 051752Z 08003KT 28/22 A2994 RMK A01 T02800216  RH  068%=      5-min Rain = 0
KTH1 051753Z 10004KT 28/22 A2994 RMK A01 T02820217  RH  068%=      5-min Rain = 0
KTH1 051754Z 08004KT 29/21 A2994 RMK A01 T02850214  RH  066%=      5-min Rain = 0
KTH1 051755Z 12004KT 29/21 A2994 RMK A01 T02850212  RH  065%=      5-min Rain = 0
KTH1 051756Z 11005KT 28/21 A2994 RMK A01 T02840213  RH  065%=      5-min Rain = 0
KTH1 051757Z 10005KT 29/21 A2994 RMK A01 T02860214  RH  065%=      5-min Rain = 0
KTH1 051758Z 09003KT 29/21 A2994 RMK A01 T02870209  RH  063%=      5-min Rain = 0
KTH1 051759Z 06003KT 29/21 A2994 RMK A01 T02860213  RH  064%=      5-min Rain = 0
KTH1 051800Z 08003KT 29/21 A2994 RMK A01 T02870213  RH  064%=      5-min Rain = 0
KTH1 051801Z 12001KT 29/21 A2994 RMK A01 T02880212  RH  064%=      5-min Rain = 0
KTH1 051802Z 08001KT 29/21 A2995 RMK A01 T02880209  RH  062%=      5-min Rain = 0
KTH1 051803Z 07003KT 29/21 A2995 RMK A01 T02880210  RH  063%=      5-min Rain = 0
KTH1 051804Z 07005KT 29/21 A2995 RMK A01 T02880213  RH  064%=      5-min Rain = 0
KTH1 051805Z 07005KT 29/22 A2995 RMK A01 T02910217  RH  064%=      5-min Rain = 0
KTH1 051806Z 07005KT 29/21 A2995 RMK A01 T02920213  RH  062%=      5-min Rain = 0
KTH1 051807Z 10004KT 29/21 A2995 RMK A01 T02920212  RH  062%=      5-min Rain = 0
KTH1 051808Z 11002KT 29/21 A2995 RMK A01 T02890209  RH  062%=      5-min Rain = 0
KTH1 051809Z 09004KT 29/21 A2995 RMK A01 T02890212  RH  063%=      5-min Rain = 0
KTH1 051810Z 11001KT 29/21 A2995 RMK A01 T02890210  RH  062%=      5-min Rain = 0
KTH1 051811Z 21002KT 29/21 A2995 RMK A01 T02880209  RH  062%=      5-min Rain = 0
KTH1 051812Z 13001KT 29/21 A2995 RMK A01 T02880211  RH  063%=      5-min Rain = 0
KTH1 051813Z 10004KT 29/21 A2995 RMK A01 T02880210  RH  063%=      5-min Rain = 0
KTH1 051814Z 09004KT 29/21 A2995 RMK A01 T02900211  RH  062%=      5-min Rain = 0
KTH1 051815Z 11003KT 29/21 A2995 RMK A01 T02900212  RH  062%=      5-min Rain = 0
KTH1 051816Z 11004KT 29/21 A2994 RMK A01 T02920214  RH  063%=      5-min Rain = 0
KTH1 051817Z 13004KT 30/21 A2994 RMK A01 T02950214  RH  062%=      5-min Rain = 0
KTH1 051818Z 14002KT 30/21 A2994 RMK A01 T02960212  RH  061%=      5-min Rain = 0
KTH1 051819Z 15004KT 30/21 A2994 RMK A01 T02950213  RH  061%=      5-min Rain = 0
KTH1 051820Z 14003KT 30/21 A2994 RMK A01 T02950212  RH  061%=      5-min Rain = 0
KTH1 051821Z 15002KT 29/21 A2994 RMK A01 T02930210  RH  061%=      5-min Rain = 0
KTH1 051822Z 17001KT 29/21 A2994 RMK A01 T02920211  RH  062%=      5-min Rain = 0
KTH1 051823Z 13002KT 29/21 A2994 RMK A01 T02910213  RH  063%=      5-min Rain = 0
KTH1 051824Z 09003KT 29/22 A2994 RMK A01 T02930216  RH  063%=      5-min Rain = 0
KTH1 051825Z 09004KT 30/22 A2994 RMK A01 T02960216  RH  062%=      5-min Rain = 0
KTH1 051826Z 07004KT 30/22 A2994 RMK A01 T02980216  RH  061%=      5-min Rain = 0
KTH1 051827Z 09003KT 30/21 A2994 RMK A01 T02970213  RH  060%=      5-min Rain = 0
KTH1 051828Z 10002KT 30/21 A2994 RMK A01 T02950214  RH  062%=      5-min Rain = 0
KTH1 051829Z 18001KT 30/22 A2994 RMK A01 T02950216  RH  063%=      5-min Rain = 0
KTH1 051830Z 17002KT 30/22 A2994 RMK A01 T02980215  RH  061%=      5-min Rain = 0
KTH1 051831Z 17004KT 30/22 A2994 RMK A01 T03000215  RH  060%=      5-min Rain = 0
KTH1 051832Z 11003KT 30/22 A2994 RMK A01 T03030215  RH  060%=      5-min Rain = 0
KTH1 051833Z 08002KT 30/21 A2994 RMK A01 T03030212  RH  059%=      5-min Rain = 0
KTH1 051834Z 01001KT 30/21 A2993 RMK A01 T03000212  RH  059%=      5-min Rain = 0
KTH1 051835Z 02001KT 30/21 A2993 RMK A01 T02970210  RH  060%=      5-min Rain = 0
KTH1 051836Z 17002KT 30/21 A2993 RMK A01 T02950210  RH  060%=      5-min Rain = 0
KTH1 051837Z 14003KT 30/21 A2993 RMK A01 T02950212  RH  061%=      5-min Rain = 0
KTH1 051838Z 15002KT 30/21 A2993 RMK A01 T02980213  RH  060%=      5-min Rain = 0
KTH1 051839Z 14003KT 30/21 A2993 RMK A01 T03010213  RH  059%=      5-min Rain = 0
KTH1 051840Z 14006KT 30/21 A2993 RMK A01 T03030212  RH  058%=      5-min Rain = 0
KTH1 051841Z 13004KT 30/21 A2993 RMK A01 T03030211  RH  058%=      5-min Rain = 0
KTH1 051842Z 12002KT 30/21 A2993 RMK A01 T03030208  RH  057%=      5-min Rain = 0
KTH1 051843Z 13003KT 30/21 A2993 RMK A01 T03030208  RH  057%=      5-min Rain = 0
KTH1 051844Z 14006KT 30/21 A2993 RMK A01 T03030211  RH  058%=      5-min Rain = 0
KTH1 051845Z 16004KT 31/21 A2993 RMK A01 T03050211  RH  058%=      5-min Rain = 0
KTH1 051846Z 16003KT 31/21 A2993 RMK A01 T03060209  RH  056%=      5-min Rain = 0
KTH1 051847Z 13006KT 31/21 A2993 RMK A01 T03060207  RH  056%=      5-min Rain = 0
KTH1 051848Z 15005KT 30/21 A2993 RMK A01 T03030207  RH  056%=      5-min Rain = 0
KTH1 051849Z 13003KT 30/21 A2993 RMK A01 T03010208  RH  057%=      5-min Rain = 0
KTH1 051850Z 12004KT 30/21 A2993 RMK A01 T03000210  RH  058%=      5-min Rain = 0
KTH1 051851Z 09004KT 30/21 A2993 RMK A01 T03020210  RH  058%=      5-min Rain = 0
KTH1 051852Z 09005KT 30/21 A2993 RMK A01 T03030214  RH  059%=      5-min Rain = 0
KTH1 051853Z 13005KT 31/21 A2993 RMK A01 T03070212  RH  057%=      5-min Rain = 0
KTH1 051854Z 12005KT 31/21 A2993 RMK A01 T03070212  RH  057%=      5-min Rain = 0
KTH1 051855Z 12004KT 31/21 A2993 RMK A01 T03080212  RH  057%=      5-min Rain = 0
KTH1 051856Z 13004KT 31/21 A2993 RMK A01 T03090213  RH  056%=      5-min Rain = 0
KTH1 051857Z 13005KT 31/21 A2993 RMK A01 T03100212  RH  056%=      5-min Rain = 0
KTH1 051858Z 14003KT 31/21 A2993 RMK A01 T03100209  RH  055%=      5-min Rain = 0
KTH1 051859Z 18002KT 31/21 A2993 RMK A01 T03080207  RH  055%=      5-min Rain = 0
KTH1 051900Z 13000KT 31/21 A2993 RMK A01 T03070208  RH  055%=      5-min Rain = 0
KTH1 051901Z 10004KT 31/21 A2993 RMK A01 T03080211  RH  056%=      5-min Rain = 0
KTH1 051902Z 09004KT 31/21 A2993 RMK A01 T03100207  RH  054%=      5-min Rain = 0
KTH1 051903Z 08003KT 31/21 A2993 RMK A01 T03110207  RH  054%=      5-min Rain = 0
KTH1 051904Z 08006KT 31/21 A2993 RMK A01 T03110210  RH  055%=      5-min Rain = 0
KTH1 051905Z 09005KT 31/21 A2992 RMK A01 T03110212  RH  056%=      5-min Rain = 0
KTH1 051906Z 07006KT 31/21 A2992 RMK A01 T03120211  RH  055%=      5-min Rain = 0
KTH1 051907Z 07003KT 31/21 A2992 RMK A01 T03100208  RH  054%=      5-min Rain = 0
KTH1 051908Z 11003KT 31/21 A2992 RMK A01 T03080211  RH  056%=      5-min Rain = 0
KTH1 051909Z 08006KT 31/21 A2993 RMK A01 T03080209  RH  056%=      5-min Rain = 0
KTH1 051910Z 09006KT 31/21 A2993 RMK A01 T03080210  RH  056%=      5-min Rain = 0
KTH1 051911Z 09005KT 31/21 A2993 RMK A01 T03080214  RH  057%=      5-min Rain = 0
KTH1 051912Z 08004KT 31/21 A2992 RMK A01 T03080209  RH  056%=      5-min Rain = 0
KTH1 051913Z 10004KT 31/21 A2992 RMK A01 T03060207  RH  055%=      5-min Rain = 0
KTH1 051914Z 11005KT 31/21 A2992 RMK A01 T03050208  RH  056%=      5-min Rain = 0
KTH1 051915Z 12004KT 31/21 A2992 RMK A01 T03070206  RH  055%=      5-min Rain = 0
KTH1 051916Z 13005KT 31/21 A2992 RMK A01 T03090207  RH  054%=      5-min Rain = 0
KTH1 051917Z 14004KT 31/21 A2992 RMK A01 T03110207  RH  054%=      5-min Rain = 0
KTH1 051918Z 12002KT 31/20 A2992 RMK A01 T03130204  RH  052%=      5-min Rain = 0
KTH1 051919Z 11002KT 31/21 A2992 RMK A01 T03130206  RH  053%=      5-min Rain = 0
KTH1 051920Z 14001KT 31/20 A2992 RMK A01 T03140204  RH  052%=      5-min Rain = 0
KTH1 051921Z 16003KT 31/20 A2992 RMK A01 T03140202  RH  051%=      5-min Rain = 0
KTH1 051922Z 17003KT 32/20 A2992 RMK A01 T03150202  RH  051%=      5-min Rain = 0
KTH1 051923Z 17003KT 31/21 A2992 RMK A01 T03140205  RH  052%=      5-min Rain = 0
KTH1 051924Z 14005KT 31/20 A2992 RMK A01 T03140203  RH  052%=      5-min Rain = 0
KTH1 051925Z 13005KT 31/21 A2992 RMK A01 T03140206  RH  053%=      5-min Rain = 0
KTH1 051926Z 12004KT 32/20 A2992 RMK A01 T03160204  RH  052%=      5-min Rain = 0
KTH1 051927Z 14004KT 32/20 A2992 RMK A01 T03160204  RH  051%=      5-min Rain = 0
KTH1 051928Z 12003KT 32/20 A2992 RMK A01 T03160202  RH  051%=      5-min Rain = 0
KTH1 051929Z 14006KT 32/20 A2992 RMK A01 T03150204  RH  052%=      5-min Rain = 0
KTH1 051930Z 12006KT 32/21 A2992 RMK A01 T03160205  RH  052%=      5-min Rain = 0
KTH1 051931Z 12005KT 32/21 A2992 RMK A01 T03180205  RH  051%=      5-min Rain = 0
KTH1 051932Z 12004KT 32/20 A2992 RMK A01 T03180204  RH  051%=      5-min Rain = 0
KTH1 051933Z 12006KT 32/20 A2992 RMK A01 T03160202  RH  051%=      5-min Rain = 0
KTH1 051934Z 12004KT 31/20 A2992 RMK A01 T03140204  RH  052%=      5-min Rain = 0
KTH1 051935Z 12005KT 31/20 A2992 RMK A01 T03140203  RH  052%=      5-min Rain = 0
KTH1 051936Z 14003KT 32/20 A2992 RMK A01 T03150199  RH  050%=      5-min Rain = 0
KTH1 051937Z 14003KT 32/20 A2992 RMK A01 T03150199  RH  050%=      5-min Rain = 0
KTH1 051938Z 18000KT 32/20 A2992 RMK A01 T03160197  RH  049%=      5-min Rain = 0
KTH1 051939Z 30001KT 32/20 A2992 RMK A01 T03160197  RH  049%=      5-min Rain = 0
KTH1 051940Z 11002KT 32/20 A2992 RMK A01 T03160203  RH  051%=      5-min Rain = 0
KTH1 051941Z 10003KT 32/20 A2992 RMK A01 T03190203  RH  050%=      5-min Rain = 0
KTH1 051942Z 12004KT 32/21 A2992 RMK A01 T03180208  RH  052%=      5-min Rain = 0
KTH1 051943Z 13005KT 32/20 A2992 RMK A01 T03190204  RH  051%=      5-min Rain = 0
KTH1 051944Z 12004KT 32/20 A2992 RMK A01 T03200204  RH  050%=      5-min Rain = 0
KTH1 051945Z 12005KT 32/21 A2992 RMK A01 T03210206  RH  051%=      5-min Rain = 0
KTH1 051946Z 15004KT 32/21 A2992 RMK A01 T03220209  RH  051%=      5-min Rain = 0
KTH1 051947Z 12003KT 32/21 A2992 RMK A01 T03230208  RH  051%=      5-min Rain = 0
KTH1 051948Z 08005KT 33/21 A2992 RMK A01 T03250210  RH  051%=      5-min Rain = 0
KTH1 051949Z 06004KT 33/21 A2992 RMK A01 T03260206  RH  049%=      5-min Rain = 0
KTH1 051950Z 07004KT 32/20 A2992 RMK A01 T03240203  RH  049%=      5-min Rain = 0
KTH1 051951Z 09006KT 32/20 A2992 RMK A01 T03220203  RH  050%=      5-min Rain = 0
KTH1 051952Z 08006KT 32/20 A2991 RMK A01 T03200202  RH  050%=      5-min Rain = 0
KTH1 051953Z 09006KT 32/20 A2991 RMK A01 T03180202  RH  050%=      5-min Rain = 0
KTH1 051954Z 09006KT 32/20 A2991 RMK A01 T03180201  RH  050%=      5-min Rain = 0
KTH1 051955Z 07006KT 32/20 A2991 RMK A01 T03180203  RH  051%=      5-min Rain = 0
KTH1 051956Z 09006KT 32/20 A2991 RMK A01 T03190202  RH  050%=      5-min Rain = 0
KTH1 051957Z 10004KT 32/20 A2991 RMK A01 T03190202  RH  050%=      5-min Rain = 0
KTH1 051958Z 11003KT 32/20 A2991 RMK A01 T03180199  RH  049%=      5-min Rain = 0
KTH1 051959Z 11005KT 32/20 A2991 RMK A01 T03180202  RH  050%=      5-min Rain = 0
KTH1 052000Z 10003KT 32/21 A2991 RMK A01 T03180208  RH  052%=      5-min Rain = 0
KTH1 052001Z 05005KT 32/21 A2991 RMK A01 T03210210  RH  052%=      5-min Rain = 0
KTH1 052002Z 05005KT 32/21 A2991 RMK A01 T03220207  RH  051%=      5-min Rain = 0
KTH1 052003Z 06002KT 32/21 A2991 RMK A01 T03190206  RH  051%=      5-min Rain = 0
KTH1 052004Z 09003KT 32/21 A2991 RMK A01 T03170206  RH  052%=      5-min Rain = 0
KTH1 052005Z 12006KT 32/20 A2991 RMK A01 T03170202  RH  051%=      5-min Rain = 0
KTH1 052006Z 14004KT 32/20 A2991 RMK A01 T03160203  RH  051%=      5-min Rain = 0
KTH1 052007Z 11003KT 32/21 A2991 RMK A01 T03150206  RH  052%=      5-min Rain = 0
KTH1 052008Z 13004KT 32/21 A2991 RMK A01 T03180206  RH  052%=      5-min Rain = 0
KTH1 052009Z 15004KT 32/20 A2991 RMK A01 T03200200  RH  049%=      5-min Rain = 0
KTH1 052010Z 15006KT 32/21 A2991 RMK A01 T03200205  RH  051%=      5-min Rain = 0
KTH1 052011Z 15007KT 32/21 A2991 RMK A01 T03210208  RH  051%=      5-min Rain = 0
KTH1 052012Z 16004KT 32/21 A2991 RMK A01 T03220209  RH  051%=      5-min Rain = 0
KTH1 052013Z 17003KT 32/22 A2991 RMK A01 T03240217  RH  053%=      5-min Rain = 0
KTH1 052014Z 13002KT 33/22 A299 RMK A01 T03300216  RH  051%=      5-min Rain = 0
KTH1 052015Z 12005KT 33/21 A299 RMK A01 T03320211  RH  049%=      5-min Rain = 0
KTH1 052016Z 11004KT 33/21 A299 RMK A01 T03300211  RH  049%=      5-min Rain = 0
KTH1 052017Z 09003KT 33/21 A299 RMK A01 T03280211  RH  050%=      5-min Rain = 0
KTH1 052018Z 10004KT 33/21 A299 RMK A01 T03260210  RH  051%=      5-min Rain = 0
KTH1 052019Z 09005KT 33/21 A299 RMK A01 T03260212  RH  051%=      5-min Rain = 0
KTH1 052020Z 09007KT 33/21 A299 RMK A01 T03250209  RH  051%=      5-min Rain = 0
KTH1 052021Z 04003KT 32/21 A299 RMK A01 T03230207  RH  050%=      5-min Rain = 0
KTH1 052022Z 03002KT 32/21 A299 RMK A01 T03200206  RH  051%=      5-min Rain = 0
KTH1 052023Z 02001KT 32/21 A299 RMK A01 T03190207  RH  052%=      5-min Rain = 0
KTH1 052024Z 08003KT 32/21 A299 RMK A01 T03210212  RH  053%=      5-min Rain = 0
KTH1 052025Z 11008KT 33/21 A299 RMK A01 T03250210  RH  051%=      5-min Rain = 0
KTH1 052026Z 10006KT 33/21 A299 RMK A01 T03270207  RH  049%=      5-min Rain = 0
KTH1 052027Z 10007KT 33/21 A299 RMK A01 T03270208  RH  050%=      5-min Rain = 0
KTH1 052028Z 10007KT 33/21 A299 RMK A01 T03260208  RH  050%=      5-min Rain = 0
KTH1 052029Z 10006KT 33/21 A299 RMK A01 T03260208  RH  050%=      5-min Rain = 0
KTH1 052030Z 09005KT 33/21 A299 RMK A01 T03270206  RH  049%=      5-min Rain = 0
KTH1 052031Z 09004KT 33/21 A299 RMK A01 T03270205  RH  049%=      5-min Rain = 0
KTH1 052032Z 11003KT 33/20 A299 RMK A01 T03270202  RH  048%=      5-min Rain = 0
KTH1 052033Z 10003KT 33/20 A299 RMK A01 T03260201  RH  048%=      5-min Rain = 0
KTH1 052034Z 12002KT 32/20 A299 RMK A01 T03240199  RH  048%=      5-min Rain = 0
KTH1 052035Z 11002KT 32/20 A2989 RMK A01 T03230202  RH  049%=      5-min Rain = 0
KTH1 052036Z 13001KT 32/20 A2989 RMK A01 T03230199  RH  048%=      5-min Rain = 0
KTH1 052037Z 08003KT 32/20 A2989 RMK A01 T03230200  RH  048%=      5-min Rain = 0
KTH1 052038Z 07005KT 32/20 A2989 RMK A01 T03230201  RH  049%=      5-min Rain = 0
KTH1 052039Z 09007KT 32/20 A2989 RMK A01 T03230200  RH  048%=      5-min Rain = 0
KTH1 052040Z 08005KT 32/20 A299 RMK A01 T03240200  RH  048%=      5-min Rain = 0
KTH1 052041Z 09006KT 32/20 A2989 RMK A01 T03240203  RH  049%=      5-min Rain = 0
KTH1 052042Z 10004KT 33/20 A299 RMK A01 T03250198  RH  047%=      5-min Rain = 0
KTH1 052043Z 07002KT 33/20 A2989 RMK A01 T03250195  RH  046%=      5-min Rain = 0
KTH1 052044Z 11005KT 33/20 A2989 RMK A01 T03250197  RH  047%=      5-min Rain = 0
KTH1 052045Z 12004KT 33/20 A2989 RMK A01 T03250201  RH  048%=      5-min Rain = 0
KTH1 052046Z 13004KT 33/20 A2989 RMK A01 T03280198  RH  047%=      5-min Rain = 0
KTH1 052047Z 09002KT 33/19 A2989 RMK A01 T03280194  RH  045%=      5-min Rain = 0
KTH1 052048Z 08005KT 33/20 A2989 RMK A01 T03260196  RH  046%=      5-min Rain = 0
KTH1 052049Z 09002KT 33/19 A2989 RMK A01 T03250190  RH  045%=      5-min Rain = 0
KTH1 052050Z 05001KT 32/19 A2989 RMK A01 T03240190  RH  045%=      5-min Rain = 0
KTH1 052051Z 03003KT 33/19 A2989 RMK A01 T03250190  RH  045%=      5-min Rain = 0
KTH1 052052Z 07005KT 33/20 A2989 RMK A01 T03250196  RH  047%=      5-min Rain = 0
KTH1 052053Z 07005KT 33/20 A2989 RMK A01 T03250195  RH  047%=      5-min Rain = 0
KTH1 052054Z 06004KT 32/20 A2989 RMK A01 T03240198  RH  047%=      5-min Rain = 0
KTH1 052055Z 08001KT 32/20 A2989 RMK A01 T03240196  RH  047%=      5-min Rain = 0
KTH1 052056Z 06003KT 32/20 A2989 RMK A01 T03240196  RH  047%=      5-min Rain = 0
KTH1 052057Z 04005KT 33/20 A2989 RMK A01 T03250198  RH  047%=      5-min Rain = 0
KTH1 052058Z 05004KT 33/20 A2989 RMK A01 T03260199  RH  047%=      5-min Rain = 0
KTH1 052059Z 08004KT 33/20 A2989 RMK A01 T03260200  RH  047%=      5-min Rain = 0
KTH1 052100Z 07004KT 33/20 A2989 RMK A01 T03260197  RH  047%=      5-min Rain = 0
KTH1 052101Z 06003KT 33/20 A2989 RMK A01 T03260200  RH  048%=      5-min Rain = 0
KTH1 052102Z 06003KT 33/20 A2989 RMK A01 T03260199  RH  047%=      5-min Rain = 0
KTH1 052103Z 07003KT 33/20 A2989 RMK A01 T03250201  RH  048%=      5-min Rain = 0
KTH1 052104Z 06004KT 33/20 A2989 RMK A01 T03270203  RH  048%=      5-min Rain = 0
KTH1 052105Z 07004KT 33/20 A2989 RMK A01 T03270202  RH  048%=      5-min Rain = 0
KTH1 052106Z 05007KT 33/20 A2989 RMK A01 T03260204  RH  049%=      5-min Rain = 0
KTH1 052107Z 04005KT 33/20 A2989 RMK A01 T03250202  RH  048%=      5-min Rain = 0
KTH1 052108Z 03006KT 32/21 A2989 RMK A01 T03240205  RH  050%=      5-min Rain = 0
KTH1 052109Z 02006KT 32/21 A2989 RMK A01 T03240205  RH  049%=      5-min Rain = 0
KTH1 052110Z 02004KT 33/20 A2989 RMK A01 T03250199  RH  047%=      5-min Rain = 0
KTH1 052111Z 10003KT 32/20 A2989 RMK A01 T03230202  RH  049%=      5-min Rain = 0
KTH1 052112Z 12003KT 32/20 A2989 RMK A01 T03230198  RH  048%=      5-min Rain = 0
KTH1 052113Z 11003KT 32/20 A2989 RMK A01 T03240199  RH  048%=      5-min Rain = 0
KTH1 052114Z 14004KT 33/20 A2989 RMK A01 T03250201  RH  048%=      5-min Rain = 0
KTH1 052115Z 11004KT 33/20 A2989 RMK A01 T03260198  RH  047%=      5-min Rain = 0
KTH1 052116Z 11005KT 33/20 A2989 RMK A01 T03250200  RH  048%=      5-min Rain = 0
KTH1 052117Z 10006KT 33/20 A2988 RMK A01 T03260200  RH  047%=      5-min Rain = 0
KTH1 052118Z 08009KT 33/20 A2988 RMK A01 T03260203  RH  049%=      5-min Rain = 0
KTH1 052119Z 09006KT 33/21 A2988 RMK A01 T03270205  RH  049%=      5-min Rain = 0
KTH1 052120Z 09006KT 33/21 A2988 RMK A01 T03280206  RH  049%=      5-min Rain = 0
KTH1 052121Z 10003KT 33/20 A2988 RMK A01 T03290199  RH  046%=      5-min Rain = 0
KTH1 052122Z 11004KT 33/20 A2988 RMK A01 T03270198  RH  047%=      5-min Rain = 0
KTH1 052123Z 11006KT 33/20 A2988 RMK A01 T03260197  RH  047%=      5-min Rain = 0
KTH1 052124Z 11004KT 33/20 A2988 RMK A01 T03250197  RH  047%=      5-min Rain = 0
KTH1 052125Z 12003KT 33/20 A2988 RMK A01 T03260201  RH  048%=      5-min Rain = 0
KTH1 052126Z 14002KT 33/20 A2988 RMK A01 T03280200  RH  047%=      5-min Rain = 0
KTH1 052127Z 01003KT 33/20 A2988 RMK A01 T03300202  RH  047%=      5-min Rain = 0
KTH1 052128Z 01004KT 33/20 A2988 RMK A01 T03300203  RH  047%=      5-min Rain = 0
KTH1 052129Z 05004KT 33/21 A2988 RMK A01 T03310206  RH  048%=      5-min Rain = 0
KTH1 052130Z 04005KT 33/20 A2988 RMK A01 T03310200  RH  046%=      5-min Rain = 0
KTH1 052131Z 05003KT 33/20 A2988 RMK A01 T03280200  RH  047%=      5-min Rain = 0
KTH1 052132Z 10005KT 33/20 A2988 RMK A01 T03270200  RH  047%=      5-min Rain = 0
KTH1 052133Z 11004KT 33/20 A2988 RMK A01 T03270202  RH  048%=      5-min Rain = 0
KTH1 052134Z 12004KT 33/20 A2988 RMK A01 T03260200  RH  047%=      5-min Rain = 0
KTH1 052135Z 09003KT 33/20 A2988 RMK A01 T03260198  RH  047%=      5-min Rain = 0
KTH1 052136Z 15002KT 33/20 A2988 RMK A01 T03250199  RH  047%=      5-min Rain = 0
KTH1 052137Z 15003KT 33/20 A2988 RMK A01 T03260197  RH  047%=      5-min Rain = 0
KTH1 052138Z 14001KT 33/20 A2988 RMK A01 T03270195  RH  046%=      5-min Rain = 0
KTH1 052139Z 12005KT 33/20 A2988 RMK A01 T03270197  RH  046%=      5-min Rain = 0
KTH1 052140Z 11003KT 33/20 A2988 RMK A01 T03270202  RH  048%=      5-min Rain = 0
KTH1 052141Z 08004KT 33/20 A2988 RMK A01 T03290203  RH  048%=      5-min Rain = 0
KTH1 052142Z 09004KT 33/21 A2988 RMK A01 T03310208  RH  048%=      5-min Rain = 0
KTH1 052143Z 05005KT 33/20 A2988 RMK A01 T03330203  RH  046%=      5-min Rain = 0
KTH1 052144Z 02003KT 33/20 A2988 RMK A01 T03310204  RH  047%=      5-min Rain = 0
KTH1 052145Z 07003KT 33/20 A2988 RMK A01 T03300201  RH  047%=      5-min Rain = 0
KTH1 052146Z 08004KT 33/20 A2988 RMK A01 T03290203  RH  047%=      5-min Rain = 0
KTH1 052147Z 06000KT 33/20 A2987 RMK A01 T03290202  RH  047%=      5-min Rain = 0
KTH1 052148Z 10002KT 33/20 A2987 RMK A01 T03290200  RH  047%=      5-min Rain = 0
KTH1 052149Z 08004KT 33/20 A2987 RMK A01 T03300203  RH  048%=      5-min Rain = 0
KTH1 052150Z 09002KT 33/20 A2987 RMK A01 T03310203  RH  047%=      5-min Rain = 0
KTH1 052151Z 13003KT 33/20 A2987 RMK A01 T03320201  RH  046%=      5-min Rain = 0
KTH1 052152Z 16002KT 33/20 A2987 RMK A01 T03310198  RH  045%=      5-min Rain = 0
KTH1 052153Z 11002KT 33/20 A2987 RMK A01 T03310204  RH  047%=      5-min Rain = 0
KTH1 052154Z 15003KT 33/20 A2987 RMK A01 T03320203  RH  047%=      5-min Rain = 0
KTH1 052155Z 12004KT 33/20 A2987 RMK A01 T03330204  RH  047%=      5-min Rain = 0
KTH1 052156Z 10004KT 33/20 A2987 RMK A01 T03330200  RH  046%=      5-min Rain = 0
KTH1 052157Z 09004KT 33/20 A2987 RMK A01 T03310201  RH  046%=      5-min Rain = 0
KTH1 052158Z 09005KT 33/21 A2987 RMK A01 T03300205  RH  048%=      5-min Rain = 0
KTH1 052159Z 09006KT 33/20 A2987 RMK A01 T03310204  RH  047%=      5-min Rain = 0
KTH1 052200Z 10005KT 33/20 A2987 RMK A01 T03310202  RH  047%=      5-min Rain = 0
KTH1 052201Z 11006KT 33/20 A2987 RMK A01 T03320203  RH  047%=      5-min Rain = 0
KTH1 052202Z 12005KT 33/20 A2987 RMK A01 T03310200  RH  046%=      5-min Rain = 0
KTH1 052203Z 11004KT 33/20 A2987 RMK A01 T03300200  RH  046%=      5-min Rain = 0
KTH1 052204Z 11003KT 33/20 A2987 RMK A01 T03300198  RH  046%=      5-min Rain = 0
KTH1 052205Z 08001KT 33/20 A2987 RMK A01 T03290195  RH  045%=      5-min Rain = 0
KTH1 052206Z 08003KT 33/20 A2986 RMK A01 T03280198  RH  046%=      5-min Rain = 0
KTH1 052207Z 08008KT 33/20 A2986 RMK A01 T03290200  RH  047%=      5-min Rain = 0
KTH1 052208Z 10006KT 33/20 A2986 RMK A01 T03300199  RH  046%=      5-min Rain = 0
KTH1 052209Z 09006KT 33/20 A2986 RMK A01 T03310198  RH  046%=      5-min Rain = 0
KTH1 052210Z 08006KT 33/20 A2986 RMK A01 T03310196  RH  045%=      5-min Rain = 0
KTH1 052211Z 10004KT 33/20 A2986 RMK A01 T03300199  RH  046%=      5-min Rain = 0
KTH1 052212Z 12003KT 33/20 A2986 RMK A01 T03310200  RH  046%=      5-min Rain = 0
KTH1 052213Z 13003KT 33/20 A2986 RMK A01 T03310197  RH  045%=      5-min Rain = 0
KTH1 052214Z 11002KT 33/20 A2986 RMK A01 T03310199  RH  046%=      5-min Rain = 0
KTH1 052215Z 09004KT 33/20 A2986 RMK A01 T03320200  RH  046%=      5-min Rain = 0
KTH1 052216Z 09005KT 33/21 A2986 RMK A01 T03330205  RH  047%=      5-min Rain = 0
KTH1 052217Z 07006KT 33/21 A2986 RMK A01 T03340205  RH  047%=      5-min Rain = 0
KTH1 052218Z 07004KT 33/20 A2986 RMK A01 T03340204  RH  047%=      5-min Rain = 0
KTH1 052219Z 06006KT 33/20 A2986 RMK A01 T03340204  RH  047%=      5-min Rain = 0
KTH1 052220Z 05006KT 33/20 A2986 RMK A01 T03340204  RH  047%=      5-min Rain = 0
KTH1 052221Z 05003KT 33/21 A2985 RMK A01 T03330206  RH  047%=      5-min Rain = 0
KTH1 052222Z 10003KT 33/20 A2985 RMK A01 T03320201  RH  046%=      5-min Rain = 0
KTH1 052223Z 09002KT 33/20 A2985 RMK A01 T03320199  RH  046%=      5-min Rain = 0
KTH1 052224Z 10001KT 33/20 A2985 RMK A01 T03310198  RH  046%=      5-min Rain = 0
KTH1 052225Z 12001KT 33/20 A2985 RMK A01 T03300196  RH  045%=      5-min Rain = 0
KTH1 052226Z 15002KT 33/20 A2985 RMK A01 T03300200  RH  046%=      5-min Rain = 0
KTH1 052227Z 14002KT 33/20 A2985 RMK A01 T03320202  RH  046%=      5-min Rain = 0
KTH1 052228Z 18001KT 34/21 A2985 RMK A01 T03350206  RH  047%=      5-min Rain = 0
KTH1 052229Z 28000KT 34/21 A2985 RMK A01 T03380206  RH  046%=      5-min Rain = 0
KTH1 052230Z 09004KT 34/21 A2985 RMK A01 T03400205  RH  045%=      5-min Rain = 0
KTH1 052231Z 08006KT 34/20 A2985 RMK A01 T03410204  RH  045%=      5-min Rain = 0
KTH1 052232Z 06006KT 34/20 A2985 RMK A01 T03400203  RH  045%=      5-min Rain = 0
KTH1 052233Z 09005KT 34/20 A2985 RMK A01 T03380203  RH  045%=      5-min Rain = 0
KTH1 052234Z 08005KT 34/20 A2985 RMK A01 T03350200  RH  045%=      5-min Rain = 0
KTH1 052235Z 06005KT 33/20 A2985 RMK A01 T03330201  RH  046%=      5-min Rain = 0
KTH1 052236Z 06003KT 33/20 A2985 RMK A01 T03320199  RH  046%=      5-min Rain = 0
KTH1 052237Z 09003KT 33/20 A2985 RMK A01 T03320201  RH  046%=      5-min Rain = 0
KTH1 052238Z 09006KT 33/20 A2985 RMK A01 T03320201  RH  046%=      5-min Rain = 0
KTH1 052239Z 09006KT 33/20 A2985 RMK A01 T03330201  RH  046%=      5-min Rain = 0
KTH1 052240Z 10004KT 33/20 A2985 RMK A01 T03330198  RH  045%=      5-min Rain = 0
KTH1 052241Z 08003KT 33/20 A2985 RMK A01 T03330201  RH  046%=      5-min Rain = 0
KTH1 052242Z 07002KT 33/20 A2985 RMK A01 T03330202  RH  046%=      5-min Rain = 0
KTH1 052243Z 07002KT 33/20 A2985 RMK A01 T03340199  RH  045%=      5-min Rain = 0
KTH1 052244Z 09002KT 34/20 A2985 RMK A01 T03350196  RH  044%=      5-min Rain = 0
KTH1 052245Z 13002KT 33/20 A2985 RMK A01 T03340199  RH  045%=      5-min Rain = 0
KTH1 052246Z 11002KT 33/20 A2984 RMK A01 T03330200  RH  046%=      5-min Rain = 0
KTH1 052247Z 09005KT 33/20 A2984 RMK A01 T03330198  RH  045%=      5-min Rain = 0
KTH1 052248Z 08004KT 33/20 A2984 RMK A01 T03320200  RH  046%=      5-min Rain = 0
KTH1 052249Z 10005KT 33/20 A2984 RMK A01 T03320204  RH  047%=      5-min Rain = 0
KTH1 052250Z 12005KT 33/20 A2984 RMK A01 T03310200  RH  046%=      5-min Rain = 0
KTH1 052251Z 13005KT 33/20 A2984 RMK A01 T03320199  RH  046%=      5-min Rain = 0
KTH1 052252Z 13004KT 33/20 A2984 RMK A01 T03310200  RH  046%=      5-min Rain = 0
KTH1 052253Z 13003KT 33/20 A2984 RMK A01 T03320200  RH  046%=      5-min Rain = 0
KTH1 052254Z 14001KT 33/20 A2984 RMK A01 T03320197  RH  045%=      5-min Rain = 0
KTH1 052255Z 09001KT 33/20 A2984 RMK A01 T03320200  RH  046%=      5-min Rain = 0
KTH1 052256Z 12004KT 33/21 A2984 RMK A01 T03330205  RH  047%=      5-min Rain = 0
KTH1 052257Z 12004KT 34/20 A2984 RMK A01 T03350199  RH  045%=      5-min Rain = 0
KTH1 052258Z 13002KT 34/20 A2983 RMK A01 T03350200  RH  045%=      5-min Rain = 0
KTH1 052259Z 12002KT 33/20 A2983 RMK A01 T03340197  RH  044%=      5-min Rain = 0
KTH1 052300Z 08003KT 33/20 A2983 RMK A01 T03330199  RH  045%=      5-min Rain = 0
KTH1 052301Z 10002KT 33/20 A2983 RMK A01 T03330198  RH  045%=      5-min Rain = 0
KTH1 052302Z 10002KT 33/20 A2983 RMK A01 T03320201  RH  046%=      5-min Rain = 0
KTH1 052303Z 13002KT 33/20 A2983 RMK A01 T03320198  RH  045%=      5-min Rain = 0
KTH1 052304Z 13002KT 33/20 A2983 RMK A01 T03330195  RH  044%=      5-min Rain = 0
KTH1 052305Z 23000KT 33/20 A2983 RMK A01 T03330196  RH  045%=      5-min Rain = 0
KTH1 052306Z 22000KT 33/20 A2983 RMK A01 T03340196  RH  044%=      5-min Rain = 0
KTH1 052307Z 14001KT 34/20 A2983 RMK A01 T03350198  RH  045%=      5-min Rain = 0
KTH1 052308Z 11002KT 34/20 A2983 RMK A01 T03360201  RH  045%=      5-min Rain = 0
KTH1 052309Z 11004KT 34/20 A2983 RMK A01 T03360199  RH  045%=      5-min Rain = 0
KTH1 052310Z 09003KT 33/20 A2983 RMK A01 T03340195  RH  044%=      5-min Rain = 0
KTH1 052311Z 08001KT 33/20 A2983 RMK A01 T03330199  RH  045%=      5-min Rain = 0
KTH1 052312Z 10002KT 33/20 A2983 RMK A01 T03330196  RH  044%=      5-min Rain = 0
KTH1 052313Z 10003KT 33/20 A2983 RMK A01 T03330198  RH  045%=      5-min Rain = 0
KTH1 052314Z 05002KT 33/20 A2983 RMK A01 T03330202  RH  046%=      5-min Rain = 0
KTH1 052315Z 03002KT 33/20 A2983 RMK A01 T03330199  RH  045%=      5-min Rain = 0
KTH1 052316Z 04002KT 33/19 A2983 RMK A01 T03320194  RH  044%=      5-min Rain = 0
KTH1 052317Z 06002KT 33/20 A2983 RMK A01 T03310197  RH  046%=      5-min Rain = 0
KTH1 052318Z 06002KT 33/20 A2983 RMK A01 T03300199  RH  046%=      5-min Rain = 0
KTH1 052319Z 06003KT 33/20 A2983 RMK A01 T03310199  RH  046%=      5-min Rain = 0
KTH1 052320Z 05003KT 33/20 A2983 RMK A01 T03320200  RH  046%=      5-min Rain = 0
KTH1 052321Z 08005KT 33/20 A2983 RMK A01 T03330204  RH  047%=      5-min Rain = 0
KTH1 052322Z 08004KT 33/20 A2983 RMK A01 T03330201  RH  046%=      5-min Rain = 0
KTH1 052323Z 09005KT 33/20 A2983 RMK A01 T03330202  RH  046%=      5-min Rain = 0
KTH1 052324Z 07004KT 33/20 A2983 RMK A01 T03330200  RH  046%=      5-min Rain = 0
KTH1 052325Z 07003KT 33/20 A2983 RMK A01 T03320200  RH  046%=      5-min Rain = 0
KTH1 052326Z 06003KT 33/20 A2983 RMK A01 T03320200  RH  046%=      5-min Rain = 0
KTH1 052327Z 04003KT 33/20 A2983 RMK A01 T03320201  RH  046%=      5-min Rain = 0
KTH1 052328Z 03006KT 33/20 A2983 RMK A01 T03310198  RH  046%=      5-min Rain = 0
KTH1 052329Z 05005KT 33/20 A2982 RMK A01 T03290198  RH  046%=      5-min Rain = 0
KTH1 052330Z 04004KT 33/20 A2982 RMK A01 T03280202  RH  047%=      5-min Rain = 0
KTH1 052331Z 04004KT 33/20 A2982 RMK A01 T03270198  RH  047%=      5-min Rain = 0
KTH1 052332Z 07004KT 33/20 A2982 RMK A01 T03280202  RH  048%=      5-min Rain = 0
KTH1 052333Z 09003KT 33/20 A2982 RMK A01 T03280203  RH  048%=      5-min Rain = 0
KTH1 052334Z 08003KT 33/20 A2982 RMK A01 T03290200  RH  047%=      5-min Rain = 0
KTH1 052335Z 07003KT 33/20 A2982 RMK A01 T03290199  RH  046%=      5-min Rain = 0
KTH1 052336Z 07002KT 33/20 A2982 RMK A01 T03300198  RH  046%=      5-min Rain = 0
KTH1 052337Z 09002KT 33/20 A2982 RMK A01 T03290197  RH  046%=      5-min Rain = 0
KTH1 052338Z 11003KT 33/20 A2982 RMK A01 T03300200  RH  047%=      5-min Rain = 0
KTH1 052339Z 12001KT 33/20 A2982 RMK A01 T03300202  RH  047%=      5-min Rain = 0
KTH1 052340Z 12001KT 33/20 A2982 RMK A01 T03310202  RH  047%=      5-min Rain = 0
KTH1 052341Z 11001KT 33/20 A2982 RMK A01 T03320202  RH  046%=      5-min Rain = 0
KTH1 052342Z 06001KT 33/20 A2982 RMK A01 T03320197  RH  045%=      5-min Rain = 0
KTH1 052343Z 09001KT 33/20 A2982 RMK A01 T03320198  RH  045%=      5-min Rain = 0
KTH1 052344Z 08000KT 33/20 A2982 RMK A01 T03320203  RH  047%=      5-min Rain = 0
KTH1 052345Z 08003KT 33/20 A2982 RMK A01 T03320203  RH  047%=      5-min Rain = 0
KTH1 052346Z 10003KT 33/20 A2982 RMK A01 T03320204  RH  047%=      5-min Rain = 0
KTH1 052347Z 09004KT 33/21 A2983 RMK A01 T03320206  RH  047%=      5-min Rain = 0
KTH1 052348Z 09006KT 33/20 A2983 RMK A01 T03320200  RH  046%=      5-min Rain = 0
KTH1 052349Z 10004KT 33/20 A2983 RMK A01 T03310203  RH  047%=      5-min Rain = 0
KTH1 052350Z 11005KT 33/20 A2983 RMK A01 T03300202  RH  047%=      5-min Rain = 0
KTH1 052351Z 11006KT 33/20 A2983 RMK A01 T03300200  RH  046%=      5-min Rain = 0
KTH1 052352Z 11004KT 33/20 A2983 RMK A01 T03290198  RH  046%=      5-min Rain = 0
KTH1 052353Z 07001KT 33/20 A2983 RMK A01 T03280200  RH  047%=      5-min Rain = 0
KTH1 052354Z 09003KT 33/20 A2983 RMK A01 T03280201  RH  047%=      5-min Rain = 0
KTH1 052355Z 08003KT 33/20 A2983 RMK A01 T03290201  RH  047%=      5-min Rain = 0
KTH1 052356Z 09003KT 33/20 A2983 RMK A01 T03290201  RH  047%=      5-min Rain = 0
KTH1 052357Z 09005KT 33/20 A2983 RMK A01 T03290201  RH  047%=      5-min Rain = 0
KTH1 052358Z 10003KT 33/20 A2983 RMK A01 T03290202  RH  047%=      5-min Rain = 0
KTH1 052359Z 12004KT 33/20 A2983 RMK A01 T03300201  RH  047%=      5-min Rain = 0
KTH1 060000Z 10004KT 33/20 A2983 RMK A01 T03290200  RH  047%=      5-min Rain = 0
KTH1 060001Z 08003KT 33/20 A2983 RMK A01 T03290198  RH  046%=      5-min Rain = 0
KTH1 060002Z 12002KT 33/20 A2983 RMK A01 T03280202  RH  047%=      5-min Rain = 0
KTH1 060003Z 13004KT 33/21 A2983 RMK A01 T03290206  RH  048%=      5-min Rain = 0
KTH1 060004Z 13004KT 33/20 A2983 RMK A01 T03300203  RH  047%=      5-min Rain = 0
KTH1 060005Z 13003KT 33/20 A2983 RMK A01 T03300201  RH  047%=      5-min Rain = 0
KTH1 060006Z 13005KT 33/20 A2983 RMK A01 T03300201  RH  047%=      5-min Rain = 0
KTH1 060007Z 12004KT 33/20 A2983 RMK A01 T03290202  RH  047%=      5-min Rain = 0
KTH1 060008Z 12004KT 33/20 A2983 RMK A01 T03290202  RH  047%=      5-min Rain = 0
KTH1 060009Z 13003KT 33/20 A2983 RMK A01 T03280201  RH  047%=      5-min Rain = 0
KTH1 060010Z 14003KT 33/20 A2983 RMK A01 T03280201  RH  047%=      5-min Rain = 0
KTH1 060011Z 12003KT 33/20 A2983 RMK A01 T03270201  RH  047%=      5-min Rain = 0
KTH1 060012Z 10003KT 33/20 A2983 RMK A01 T03270202  RH  048%=      5-min Rain = 0
KTH1 060013Z 12004KT 33/20 A2983 RMK A01 T03280204  RH  048%=      5-min Rain = 0
KTH1 060014Z 11003KT 33/20 A2983 RMK A01 T03280203  RH  048%=      5-min Rain = 0
KTH1 060015Z 09003KT 33/20 A2983 RMK A01 T03270202  RH  048%=      5-min Rain = 0
KTH1 060016Z 08004KT 33/21 A2983 RMK A01 T03270205  RH  049%=      5-min Rain = 0
KTH1 060017Z 09003KT 33/20 A2983 RMK A01 T03270203  RH  048%=      5-min Rain = 0
KTH1 060018Z 09002KT 33/20 A2983 RMK A01 T03260202  RH  048%=      5-min Rain = 0
KTH1 060019Z 12004KT 33/21 A2983 RMK A01 T03260206  RH  049%=      5-min Rain = 0
KTH1 060020Z 11003KT 33/20 A2983 RMK A01 T03260202  RH  048%=      5-min Rain = 0
KTH1 060021Z 09006KT 33/21 A2983 RMK A01 T03250205  RH  049%=      5-min Rain = 0
KTH1 060022Z 10006KT 32/20 A2983 RMK A01 T03240203  RH  049%=      5-min Rain = 0
KTH1 060023Z 10006KT 32/21 A2983 RMK A01 T03240205  RH  050%=      5-min Rain = 0
KTH1 060024Z 10005KT 32/20 A2983 RMK A01 T03230204  RH  050%=      5-min Rain = 0
KTH1 060025Z 09006KT 32/20 A2983 RMK A01 T03220203  RH  049%=      5-min Rain = 0
KTH1 060026Z 11005KT 32/20 A2983 RMK A01 T03220203  RH  050%=      5-min Rain = 0
KTH1 060027Z 10006KT 32/20 A2983 RMK A01 T03220202  RH  049%=      5-min Rain = 0
KTH1 060028Z 10005KT 32/20 A2983 RMK A01 T03210202  RH  049%=      5-min Rain = 0
KTH1 060029Z 10005KT 32/20 A2983 RMK A01 T03210202  RH  049%=      5-min Rain = 0
KTH1 060030Z 10004KT 32/20 A2983 RMK A01 T03210204  RH  050%=      5-min Rain = 0
KTH1 060031Z 10006KT 32/20 A2983 RMK A01 T03210204  RH  050%=      5-min Rain = 0
KTH1 060032Z 10007KT 32/20 A2983 RMK A01 T03210201  RH  049%=      5-min Rain = 0
KTH1 060033Z 09007KT 32/20 A2983 RMK A01 T03200201  RH  049%=      5-min Rain = 0
KTH1 060034Z 09008KT 32/20 A2983 RMK A01 T03200202  RH  049%=      5-min Rain = 0
KTH1 060035Z 09006KT 32/20 A2983 RMK A01 T03190202  RH  050%=      5-min Rain = 0
KTH1 060036Z 10005KT 32/20 A2983 RMK A01 T03190203  RH  050%=      5-min Rain = 0
KTH1 060037Z 10006KT 32/20 A2983 RMK A01 T03190202  RH  050%=      5-min Rain = 0
KTH1 060038Z 10006KT 32/20 A2983 RMK A01 T03190202  RH  050%=      5-min Rain = 0
KTH1 060039Z 10005KT 32/20 A2984 RMK A01 T03180201  RH  050%=      5-min Rain = 0
KTH1 060040Z 08004KT 32/20 A2984 RMK A01 T03180203  RH  051%=      5-min Rain = 0
KTH1 060041Z 07004KT 32/20 A2984 RMK A01 T03180203  RH  050%=      5-min Rain = 0
KTH1 060042Z 08004KT 32/21 A2984 RMK A01 T03180205  RH  051%=      5-min Rain = 0
KTH1 060043Z 08004KT 32/21 A2984 RMK A01 T03180206  RH  051%=      5-min Rain = 0
KTH1 060044Z 08004KT 32/20 A2984 RMK A01 T03180202  RH  050%=      5-min Rain = 0
KTH1 060045Z 08005KT 32/20 A2984 RMK A01 T03180204  RH  051%=      5-min Rain = 0
KTH1 060046Z 08005KT 32/20 A2984 RMK A01 T03170200  RH  050%=      5-min Rain = 0
KTH1 060047Z 09004KT 32/20 A2984 RMK A01 T03170202  RH  051%=      5-min Rain = 0
KTH1 060048Z 10003KT 32/20 A2984 RMK A01 T03160203  RH  051%=      5-min Rain = 0
KTH1 060049Z 10005KT 32/20 A2984 RMK A01 T03160204  RH  051%=      5-min Rain = 0
KTH1 060050Z 10005KT 32/20 A2984 RMK A01 T03160201  RH  051%=      5-min Rain = 0
KTH1 060051Z 10005KT 32/20 A2984 RMK A01 T03150201  RH  051%=      5-min Rain = 0
KTH1 060052Z 09006KT 32/20 A2984 RMK A01 T03160201  RH  051%=      5-min Rain = 0
KTH1 060053Z 09005KT 32/20 A2984 RMK A01 T03150201  RH  051%=      5-min Rain = 0
KTH1 060054Z 09005KT 32/20 A2984 RMK A01 T03150202  RH  051%=      5-min Rain = 0
KTH1 060055Z 09006KT 31/20 A2984 RMK A01 T03140201  RH  051%=      5-min Rain = 0
KTH1 060056Z 10005KT 31/20 A2984 RMK A01 T03130200  RH  051%=      5-min Rain = 0
KTH1 060057Z 10004KT 31/20 A2984 RMK A01 T03130201  RH  051%=      5-min Rain = 0
KTH1 060058Z 10005KT 31/20 A2984 RMK A01 T03130203  RH  052%=      5-min Rain = 0
KTH1 060059Z 09004KT 31/20 A2984 RMK A01 T03130201  RH  052%=      5-min Rain = 0
KTH1 060100Z 10005KT 31/20 A2984 RMK A01 T03130202  RH  052%=      5-min Rain = 0
KTH1 060101Z 11005KT 31/20 A2984 RMK A01 T03120201  RH  052%=      5-min Rain = 0
KTH1 060102Z 10006KT 31/20 A2984 RMK A01 T03120199  RH  051%=      5-min Rain = 0
KTH1 060103Z 11004KT 31/20 A2984 RMK A01 T03120199  RH  051%=      5-min Rain = 0
KTH1 060104Z 11005KT 31/20 A2984 RMK A01 T03120201  RH  052%=      5-min Rain = 0
KTH1 060105Z 11005KT 31/20 A2984 RMK A01 T03110202  RH  052%=      5-min Rain = 0
KTH1 060106Z 11006KT 31/20 A2983 RMK A01 T03110201  RH  052%=      5-min Rain = 0
KTH1 060107Z 10006KT 31/20 A2983 RMK A01 T03100202  RH  053%=      5-min Rain = 0
KTH1 060108Z 11005KT 31/20 A2983 RMK A01 T03100203  RH  053%=      5-min Rain = 0
KTH1 060109Z 11004KT 31/20 A2983 RMK A01 T03090203  RH  053%=      5-min Rain = 0
KTH1 060110Z 12004KT 31/20 A2984 RMK A01 T03090204  RH  054%=      5-min Rain = 0
KTH1 060111Z 11004KT 31/21 A2984 RMK A01 T03080205  RH  054%=      5-min Rain = 0
KTH1 060112Z 11003KT 31/21 A2984 RMK A01 T03080205  RH  054%=      5-min Rain = 0
KTH1 060113Z 11004KT 31/21 A2984 RMK A01 T03080208  RH  055%=      5-min Rain = 0
KTH1 060114Z 10005KT 31/21 A2984 RMK A01 T03070208  RH  055%=      5-min Rain = 0
KTH1 060115Z 10005KT 31/21 A2984 RMK A01 T03070208  RH  056%=      5-min Rain = 0
KTH1 060116Z 11005KT 31/21 A2984 RMK A01 T03060208  RH  056%=      5-min Rain = 0
KTH1 060117Z 11004KT 31/21 A2984 RMK A01 T03060208  RH  056%=      5-min Rain = 0
KTH1 060118Z 10005KT 31/21 A2984 RMK A01 T03060210  RH  056%=      5-min Rain = 0
KTH1 060119Z 10004KT 31/21 A2984 RMK A01 T03060209  RH  056%=      5-min Rain = 0
KTH1 060120Z 10005KT 31/21 A2984 RMK A01 T03050210  RH  057%=      5-min Rain = 0
KTH1 060121Z 10004KT 31/21 A2984 RMK A01 T03050209  RH  057%=      5-min Rain = 0
KTH1 060122Z 10005KT 30/21 A2984 RMK A01 T03040209  RH  057%=      5-min Rain = 0
KTH1 060123Z 10004KT 30/21 A2984 RMK A01 T03040209  RH  057%=      5-min Rain = 0
KTH1 060124Z 10004KT 30/21 A2984 RMK A01 T03040210  RH  057%=      5-min Rain = 0
KTH1 060125Z 09004KT 30/21 A2984 RMK A01 T03040210  RH  057%=      5-min Rain = 0
KTH1 060126Z 10005KT 30/21 A2984 RMK A01 T03030210  RH  058%=      5-min Rain = 0
KTH1 060127Z 09004KT 30/21 A2984 RMK A01 T03030209  RH  057%=      5-min Rain = 0
KTH1 060128Z 09005KT 30/21 A2984 RMK A01 T03020210  RH  058%=      5-min Rain = 0
KTH1 060129Z 10004KT 30/21 A2984 RMK A01 T03020208  RH  057%=      5-min Rain = 0
KTH1 060130Z 10005KT 30/21 A2984 RMK A01 T03020208  RH  057%=      5-min Rain = 0
KTH1 060131Z 10004KT 30/21 A2985 RMK A01 T03020208  RH  057%=      5-min Rain = 0
KTH1 060132Z 09003KT 30/21 A2985 RMK A01 T03010206  RH  057%=      5-min Rain = 0
KTH1 060133Z 09004KT 30/21 A2985 RMK A01 T03010207  RH  057%=      5-min Rain = 0
KTH1 060134Z 09004KT 30/21 A2985 RMK A01 T03010206  RH  057%=      5-min Rain = 0
KTH1 060135Z 09005KT 30/21 A2985 RMK A01 T03010206  RH  057%=      5-min Rain = 0
KTH1 060136Z 09004KT 30/21 A2985 RMK A01 T03000206  RH  057%=      5-min Rain = 0
KTH1 060137Z 10004KT 30/21 A2985 RMK A01 T03000205  RH  057%=      5-min Rain = 0
KTH1 060138Z 10004KT 30/21 A2985 RMK A01 T02990205  RH  057%=      5-min Rain = 0
KTH1 060139Z 10005KT 30/20 A2985 RMK A01 T02990204  RH  057%=      5-min Rain = 0
KTH1 060140Z 10003KT 30/20 A2985 RMK A01 T02990204  RH  057%=      5-min Rain = 0
KTH1 060141Z 10005KT 30/21 A2985 RMK A01 T02980205  RH  057%=      5-min Rain = 0
KTH1 060142Z 10004KT 30/20 A2985 RMK A01 T02980204  RH  057%=      5-min Rain = 0
KTH1 060143Z 10005KT 30/20 A2985 RMK A01 T02970204  RH  057%=      5-min Rain = 0
KTH1 060144Z 09004KT 30/20 A2985 RMK A01 T02970204  RH  057%=      5-min Rain = 0
KTH1 060145Z 10005KT 30/20 A2985 RMK A01 T02970203  RH  057%=      5-min Rain = 0
KTH1 060146Z 09004KT 30/20 A2985 RMK A01 T02970204  RH  057%=      5-min Rain = 0
KTH1 060147Z 09004KT 30/20 A2986 RMK A01 T02970204  RH  058%=      5-min Rain = 0
KTH1 060148Z 09004KT 30/20 A2986 RMK A01 T02960204  RH  058%=      5-min Rain = 0
KTH1 060149Z 09004KT 30/20 A2986 RMK A01 T02960203  RH  058%=      5-min Rain = 0
KTH1 060150Z 10003KT 30/20 A2986 RMK A01 T02950203  RH  058%=      5-min Rain = 0
KTH1 060151Z 10004KT 30/20 A2986 RMK A01 T02950203  RH  058%=      5-min Rain = 0
KTH1 060152Z 10004KT 30/20 A2986 RMK A01 T02950202  RH  057%=      5-min Rain = 0
KTH1 060153Z 10004KT 30/20 A2986 RMK A01 T02950202  RH  057%=      5-min Rain = 0
KTH1 060154Z 11004KT 30/20 A2986 RMK A01 T02950202  RH  057%=      5-min Rain = 0
KTH1 060155Z 11004KT 30/20 A2986 RMK A01 T02950202  RH  057%=      5-min Rain = 0
KTH1 060156Z 10003KT 30/20 A2986 RMK A01 T02950202  RH  057%=      5-min Rain = 0
KTH1 060157Z 10004KT 30/20 A2986 RMK A01 T02950202  RH  057%=      5-min Rain = 0
KTH1 060158Z 09005KT 29/20 A2986 RMK A01 T02940201  RH  057%=      5-min Rain = 0
KTH1 060159Z 09004KT 29/20 A2986 RMK A01 T02940201  RH  057%=      5-min Rain = 0
KTH1 060200Z 09004KT 29/20 A2986 RMK A01 T02940201  RH  057%=      5-min Rain = 0
KTH1 060201Z 10004KT 29/20 A2986 RMK A01 T02940201  RH  057%=      5-min Rain = 0
KTH1 060202Z 10004KT 29/20 A2986 RMK A01 T02940200  RH  057%=      5-min Rain = 0
KTH1 060203Z 09005KT 29/20 A2986 RMK A01 T02940200  RH  057%=      5-min Rain = 0
KTH1 060204Z 09004KT 29/20 A2986 RMK A01 T02940200  RH  057%=      5-min Rain = 0
KTH1 060205Z 10005KT 29/20 A2986 RMK A01 T02940201  RH  057%=      5-min Rain = 0
KTH1 060206Z 10004KT 29/20 A2986 RMK A01 T02930200  RH  057%=      5-min Rain = 0
KTH1 060207Z 10002KT 29/20 A2986 RMK A01 T02930201  RH  057%=      5-min Rain = 0
KTH1 060208Z 09003KT 29/20 A2986 RMK A01 T02930201  RH  058%=      5-min Rain = 0
KTH1 060209Z 09004KT 29/20 A2986 RMK A01 T02930201  RH  058%=      5-min Rain = 0
KTH1 060210Z 09005KT 29/20 A2986 RMK A01 T02920202  RH  058%=      5-min Rain = 0
KTH1 060211Z 08004KT 29/20 A2986 RMK A01 T02920201  RH  058%=      5-min Rain = 0
KTH1 060212Z 09004KT 29/20 A2986 RMK A01 T02910201  RH  058%=      5-min Rain = 0
KTH1 060213Z 09004KT 29/20 A2986 RMK A01 T02910202  RH  059%=      5-min Rain = 0
KTH1 060214Z 08004KT 29/20 A2986 RMK A01 T02910202  RH  059%=      5-min Rain = 0
KTH1 060215Z 09004KT 29/20 A2986 RMK A01 T02910202  RH  059%=      5-min Rain = 0
KTH1 060216Z 09004KT 29/20 A2986 RMK A01 T02910202  RH  059%=      5-min Rain = 0
KTH1 060217Z 09004KT 29/20 A2986 RMK A01 T02910202  RH  059%=      5-min Rain = 0
KTH1 060218Z 09004KT 29/20 A2986 RMK A01 T02910202  RH  059%=      5-min Rain = 0
KTH1 060219Z 09004KT 29/20 A2986 RMK A01 T02910202  RH  059%=      5-min Rain = 0
KTH1 060220Z 09003KT 29/20 A2986 RMK A01 T02910202  RH  059%=      5-min Rain = 0
KTH1 060221Z 09003KT 29/20 A2987 RMK A01 T02910202  RH  059%=      5-min Rain = 0
KTH1 060222Z 09004KT 29/20 A2987 RMK A01 T02910203  RH  059%=      5-min Rain = 0
KTH1 060223Z 09005KT 29/20 A2987 RMK A01 T02910204  RH  059%=      5-min Rain = 0
KTH1 060224Z 09004KT 29/21 A2987 RMK A01 T02910205  RH  060%=      5-min Rain = 0
KTH1 060225Z 09005KT 29/21 A2987 RMK A01 T02910205  RH  060%=      5-min Rain = 0
KTH1 060226Z 09005KT 29/21 A2987 RMK A01 T02900205  RH  060%=      5-min Rain = 0
KTH1 060227Z 09004KT 29/21 A2987 RMK A01 T02900205  RH  060%=      5-min Rain = 0
KTH1 060228Z 09004KT 29/21 A2987 RMK A01 T02900206  RH  060%=      5-min Rain = 0
KTH1 060229Z 08005KT 29/21 A2987 RMK A01 T02900206  RH  061%=      5-min Rain = 0
KTH1 060230Z 08005KT 29/21 A2987 RMK A01 T02900207  RH  061%=      5-min Rain = 0
KTH1 060231Z 08004KT 29/21 A2987 RMK A01 T02890207  RH  061%=      5-min Rain = 0
KTH1 060232Z 09004KT 29/21 A2987 RMK A01 T02890207  RH  061%=      5-min Rain = 0
KTH1 060233Z 09005KT 29/21 A2987 RMK A01 T02890207  RH  061%=      5-min Rain = 0
KTH1 060234Z 09005KT 29/21 A2987 RMK A01 T02880207  RH  062%=      5-min Rain = 0
KTH1 060235Z 09005KT 29/21 A2987 RMK A01 T02880208  RH  062%=      5-min Rain = 0
KTH1 060236Z 09005KT 29/21 A2987 RMK A01 T02880208  RH  062%=      5-min Rain = 0
KTH1 060237Z 09006KT 29/21 A2987 RMK A01 T02880208  RH  062%=      5-min Rain = 0
KTH1 060238Z 09005KT 29/21 A2987 RMK A01 T02880208  RH  062%=      5-min Rain = 0
KTH1 060239Z 09004KT 29/21 A2987 RMK A01 T02880208  RH  062%=      5-min Rain = 0
KTH1 060240Z 10004KT 29/21 A2987 RMK A01 T02880208  RH  062%=      5-min Rain = 0
KTH1 060241Z 09004KT 29/21 A2987 RMK A01 T02880208  RH  062%=      5-min Rain = 0
KTH1 060242Z 09004KT 29/21 A2987 RMK A01 T02880209  RH  062%=      5-min Rain = 0
KTH1 060243Z 09005KT 29/21 A2988 RMK A01 T02870209  RH  063%=      5-min Rain = 0
KTH1 060244Z 08004KT 29/21 A2988 RMK A01 T02870209  RH  063%=      5-min Rain = 0
KTH1 060245Z 08005KT 29/21 A2988 RMK A01 T02870209  RH  063%=      5-min Rain = 0
KTH1 060246Z 08005KT 29/21 A2988 RMK A01 T02860209  RH  063%=      5-min Rain = 0
KTH1 060247Z 08006KT 29/21 A2988 RMK A01 T02860209  RH  063%=      5-min Rain = 0
KTH1 060248Z 08005KT 29/21 A2988 RMK A01 T02860209  RH  063%=      5-min Rain = 0
KTH1 060249Z 08004KT 29/21 A2988 RMK A01 T02860209  RH  063%=      5-min Rain = 0
KTH1 060250Z 07004KT 29/21 A2988 RMK A01 T02860210  RH  063%=      5-min Rain = 0
KTH1 060251Z 07004KT 29/21 A2988 RMK A01 T02860210  RH  063%=      5-min Rain = 0
KTH1 060252Z 07004KT 29/21 A2988 RMK A01 T02850210  RH  064%=      5-min Rain = 0
KTH1 060253Z 07004KT 29/21 A2988 RMK A01 T02850210  RH  064%=      5-min Rain = 0
KTH1 060254Z 07004KT 28/21 A2988 RMK A01 T02840209  RH  064%=      5-min Rain = 0
KTH1 060255Z 07004KT 28/21 A2989 RMK A01 T02830209  RH  064%=      5-min Rain = 0
KTH1 060256Z 07004KT 28/21 A2989 RMK A01 T02830210  RH  064%=      5-min Rain = 0
KTH1 060257Z 07004KT 28/21 A2989 RMK A01 T02820210  RH  065%=      5-min Rain = 0
KTH1 060258Z 07004KT 28/21 A2989 RMK A01 T02820209  RH  065%=      5-min Rain = 0
KTH1 060259Z 07004KT 28/21 A2989 RMK A01 T02810209  RH  065%=      5-min Rain = 0
KTH1 060300Z 07004KT 28/21 A2989 RMK A01 T02810210  RH  065%=      5-min Rain = 0
KTH1 060301Z 07004KT 28/21 A2989 RMK A01 T02800210  RH  066%=      5-min Rain = 0
KTH1 060302Z 08004KT 28/21 A2989 RMK A01 T02800210  RH  066%=      5-min Rain = 0
KTH1 060303Z 08004KT 28/21 A2989 RMK A01 T02790210  RH  066%=      5-min Rain = 0
KTH1 060304Z 08004KT 28/21 A2989 RMK A01 T02790210  RH  066%=      5-min Rain = 0
KTH1 060305Z 09004KT 28/21 A2989 RMK A01 T02790210  RH  066%=      5-min Rain = 0
KTH1 060306Z 09004KT 28/21 A2989 RMK A01 T02790210  RH  066%=      5-min Rain = 0
KTH1 060307Z 09004KT 28/21 A2989 RMK A01 T02780210  RH  067%=      5-min Rain = 0
KTH1 060308Z 09004KT 28/21 A2989 RMK A01 T02780211  RH  067%=      5-min Rain = 0
KTH1 060309Z 09004KT 28/21 A2989 RMK A01 T02780211  RH  067%=      5-min Rain = 0
KTH1 060310Z 09004KT 28/21 A2989 RMK A01 T02780211  RH  067%=      5-min Rain = 0
KTH1 060311Z 08004KT 28/21 A2989 RMK A01 T02780211  RH  067%=      5-min Rain = 0
KTH1 060312Z 08004KT 28/21 A2989 RMK A01 T02770211  RH  067%=      5-min Rain = 0
KTH1 060313Z 08003KT 28/21 A2989 RMK A01 T02770211  RH  067%=      5-min Rain = 0
KTH1 060314Z 08004KT 28/21 A2989 RMK A01 T02770211  RH  067%=      5-min Rain = 0
KTH1 060315Z 07005KT 28/21 A2989 RMK A01 T02760211  RH  068%=      5-min Rain = 0
KTH1 060316Z 06006KT 28/21 A2989 RMK A01 T02760211  RH  068%=      5-min Rain = 0
KTH1 060317Z 07009G15KT 28/21 A2989 RMK A01 T02750211  RH  068%=      5-min Rain = 0
KTH1 060318Z 07010KT 28/21 A2989 RMK A01 T02750212  RH  068%=      5-min Rain = 0
KTH1 060319Z 06008KT 28/21 A2989 RMK A01 T02750213  RH  069%=      5-min Rain = 0
KTH1 060320Z 06006KT 28/21 A2989 RMK A01 T02760214  RH  069%=      5-min Rain = 0
KTH1 060321Z 06008KT 28/21 A299 RMK A01 T02750214  RH  069%=      5-min Rain = 0
KTH1 060322Z 06010KT 27/21 A299 RMK A01 T02740214  RH  070%=      5-min Rain = 0
KTH1 060323Z 06012KT 27/22 A299 RMK A01 T02730215  RH  070%=      5-min Rain = 0
KTH1 060324Z 06008KT 27/21 A299 RMK A01 T02710214  RH  071%=      5-min Rain = 0
KTH1 060325Z 05008KT 27/22 A299 RMK A01 T02690215  RH  072%=      5-min Rain = 0
KTH1 060326Z 05008KT 27/21 A299 RMK A01 T02680214  RH  072%=      5-min Rain = 0
KTH1 060327Z 05009KT 27/21 A299 RMK A01 T02660214  RH  073%=      5-min Rain = 0
KTH1 060328Z 05011KT 26/21 A2991 RMK A01 T02640214  RH  074%=      5-min Rain = 0
KTH1 060329Z 06010KT 26/21 A299 RMK A01 T02630214  RH  075%=      5-min Rain = 0
KTH1 060330Z 07011KT 26/21 A299 RMK A01 T02610214  RH  075%=      5-min Rain = 0
KTH1 060331Z 06008KT 26/21 A299 RMK A01 T02600214  RH  076%=      5-min Rain = 0
KTH1 060332Z 07008KT 26/21 A299 RMK A01 T02590214  RH  076%=      5-min Rain = 0
KTH1 060333Z 06011KT 26/21 A299 RMK A01 T02570214  RH  077%=      5-min Rain = 0
KTH1 060334Z 07009KT 26/21 A299 RMK A01 T02570214  RH  077%=      5-min Rain = 0
KTH1 060335Z 06010KT 26/21 A299 RMK A01 T02560214  RH  078%=      5-min Rain = 0
KTH1 060336Z 06007KT 26/21 A299 RMK A01 T02550214  RH  078%=      5-min Rain = 0
KTH1 060337Z 06007KT 25/21 A299 RMK A01 T02540214  RH  078%=      5-min Rain = 0
KTH1 060338Z 06007G12KT 25/21 A2991 RMK A01 T02530214  RH  079%=      5-min Rain = 0
KTH1 060339Z 07006KT 25/21 A2991 RMK A01 T02530214  RH  079%=      5-min Rain = 0
KTH1 060340Z 06006KT 25/21 A2991 RMK A01 T02520214  RH  079%=      5-min Rain = 0
KTH1 060341Z 06007KT 25/21 A2991 RMK A01 T02520214  RH  079%=      5-min Rain = 0
KTH1 060342Z 07006KT 25/21 A2991 RMK A01 T02510214  RH  080%=      5-min Rain = 0
KTH1 060343Z 05007KT 25/21 A2991 RMK A01 T02510213  RH  080%=      5-min Rain = 0
KTH1 060344Z 07006KT 25/21 A2991 RMK A01 T02500213  RH  080%=      5-min Rain = 0
KTH1 060345Z 06010KT 25/21 A2991 RMK A01 T02490212  RH  080%=      5-min Rain = 0
KTH1 060346Z 07010KT 25/21 A2991 RMK A01 T02490211  RH  079%=      5-min Rain = 0
KTH1 060347Z 06010KT 25/21 A2991 RMK A01 T02480210  RH  079%=      5-min Rain = 0
KTH1 060348Z 07008KT 25/21 A2991 RMK A01 T02470209  RH  079%=      5-min Rain = 0
KTH1 060349Z 07006KT 25/21 A2991 RMK A01 T02470210  RH  080%=      5-min Rain = 0
KTH1 060350Z 07007KT 25/21 A2991 RMK A01 T02470210  RH  080%=      5-min Rain = 0
KTH1 060351Z 07006KT 25/21 A2991 RMK A01 T02460209  RH  080%=      5-min Rain = 0
KTH1 060352Z 07008KT 25/21 A2991 RMK A01 T02450208  RH  080%=      5-min Rain = 0
KTH1 060353Z 08009KT 25/21 A2991 RMK A01 T02450206  RH  079%=      5-min Rain = 0
KTH1 060354Z 07007KT 24/21 A2991 RMK A01 T02440205  RH  079%=      5-min Rain = 0
KTH1 060355Z 07008KT 24/21 A2991 RMK A01 T02440205  RH  079%=      5-min Rain = 0
KTH1 060356Z 08006KT 24/21 A2991 RMK A01 T02430205  RH  079%=      5-min Rain = 0
KTH1 060357Z 08007KT 24/21 A2991 RMK A01 T02430205  RH  079%=      5-min Rain = 0
KTH1 060358Z 09006KT 24/20 A2991 RMK A01 T02420204  RH  079%=      5-min Rain = 0
KTH1 060359Z 08005G10KT 24/20 A2991 RMK A01 T02410203  RH  079%=      5-min Rain = 0
KTH1 060400Z 08006KT 24/20 A2991 RMK A01 T02400203  RH  079%=      5-min Rain = 0
KTH1 060401Z 08008KT 24/20 A2991 RMK A01 T02400202  RH  080%=      5-min Rain = 0
KTH1 060402Z 07009KT 24/20 A2991 RMK A01 T02390203  RH  080%=      5-min Rain = 0
KTH1 060403Z 07009KT 24/20 A2991 RMK A01 T02390202  RH  080%=      5-min Rain = 0
KTH1 060404Z 06009KT 24/20 A2991 RMK A01 T02380202  RH  080%=      5-min Rain = 0
KTH1 060405Z 07009KT 24/20 A2991 RMK A01 T02380202  RH  080%=      5-min Rain = 0
KTH1 060406Z 07008KT 24/20 A2991 RMK A01 T02380202  RH  080%=      5-min Rain = 0
KTH1 060407Z 06007KT 24/20 A2991 RMK A01 T02380202  RH  080%=      5-min Rain = 0
KTH1 060408Z 06009KT 24/20 A2991 RMK A01 T02370201  RH  080%=      5-min Rain = 0
KTH1 060409Z 06008KT 24/20 A2991 RMK A01 T02370201  RH  080%=      5-min Rain = 0
KTH1 060410Z 06008KT 24/20 A2992 RMK A01 T02370201  RH  080%=      5-min Rain = 0
KTH1 060411Z 06008KT 24/20 A2991 RMK A01 T02360200  RH  080%=      5-min Rain = 0
KTH1 060412Z 05007KT 24/20 A2991 RMK A01 T02360201  RH  080%=      5-min Rain = 0
KTH1 060413Z 06007KT 24/20 A2991 RMK A01 T02360200  RH  080%=      5-min Rain = 0
KTH1 060414Z 06007KT 24/20 A2991 RMK A01 T02360200  RH  081%=      5-min Rain = 0
KTH1 060415Z 06007KT 24/20 A2991 RMK A01 T02350200  RH  081%=      5-min Rain = 0
KTH1 060416Z 06006KT 24/20 A2991 RMK A01 T02350200  RH  081%=      5-min Rain = 0
KTH1 060417Z 06005KT 24/20 A2991 RMK A01 T02350200  RH  081%=      5-min Rain = 0
KTH1 060418Z 07005KT 24/20 A2991 RMK A01 T02350200  RH  081%=      5-min Rain = 0
KTH1 060419Z 07006KT 23/20 A2991 RMK A01 T02340200  RH  081%=      5-min Rain = 0
KTH1 060420Z 06005KT 23/20 A2991 RMK A01 T02340200  RH  081%=      5-min Rain = 0
KTH1 060421Z 07006KT 23/20 A2991 RMK A01 T02340200  RH  081%=      5-min Rain = 0
KTH1 060422Z 06007KT 23/20 A2991 RMK A01 T02330200  RH  082%=      5-min Rain = 0
KTH1 060423Z 07006KT 23/20 A2991 RMK A01 T02320200  RH  082%=      5-min Rain = 0
KTH1 060424Z 07005KT 23/20 A2991 RMK A01 T02330200  RH  082%=      5-min Rain = 0
KTH1 060425Z 07006KT 23/20 A2991 RMK A01 T02320200  RH  082%=      5-min Rain = 0
KTH1 060426Z 08006KT 23/20 A299 RMK A01 T02320200  RH  082%=      5-min Rain = 0
KTH1 060427Z 09006KT 23/20 A299 RMK A01 T02320200  RH  082%=      5-min Rain = 0
KTH1 060428Z 08007KT 23/20 A299 RMK A01 T02320199  RH  082%=      5-min Rain = 0
KTH1 060429Z 09007KT 23/20 A299 RMK A01 T02320198  RH  081%=      5-min Rain = 0
KTH1 060430Z 09006KT 23/20 A299 RMK A01 T02320197  RH  081%=      5-min Rain = 0
KTH1 060431Z 09005KT 23/20 A299 RMK A01 T02320196  RH  080%=      5-min Rain = 0
KTH1 060432Z 09006KT 23/20 A299 RMK A01 T02320196  RH  080%=      5-min Rain = 0
KTH1 060433Z 09006KT 23/20 A299 RMK A01 T02320195  RH  080%=      5-min Rain = 0
KTH1 060434Z 08006KT 23/20 A299 RMK A01 T02320195  RH  080%=      5-min Rain = 0
KTH1 060435Z 09005KT 23/20 A299 RMK A01 T02320195  RH  080%=      5-min Rain = 0
KTH1 060436Z 08006KT 23/19 A299 RMK A01 T02320194  RH  080%=      5-min Rain = 0
KTH1 060437Z 08007KT 23/19 A299 RMK A01 T02310193  RH  079%=      5-min Rain = 0
KTH1 060438Z 08006KT 23/19 A299 RMK A01 T02310193  RH  079%=      5-min Rain = 0
KTH1 060439Z 08007KT 23/19 A299 RMK A01 T02310192  RH  079%=      5-min Rain = 0
KTH1 060440Z 09007KT 23/19 A299 RMK A01 T02310192  RH  079%=      5-min Rain = 0
KTH1 060441Z 09007KT 23/19 A299 RMK A01 T02300192  RH  079%=      5-min Rain = 0
KTH1 060442Z 09007KT 23/19 A2991 RMK A01 T02300191  RH  079%=      5-min Rain = 0
KTH1 060443Z 09006KT 23/19 A2991 RMK A01 T02300191  RH  079%=      5-min Rain = 0
KTH1 060444Z 09006KT 23/19 A2991 RMK A01 T02290191  RH  079%=      5-min Rain = 0
KTH1 060445Z 09006KT 23/19 A2991 RMK A01 T02290191  RH  079%=      5-min Rain = 0
KTH1 060446Z 10006KT 23/19 A2991 RMK A01 T02290191  RH  079%=      5-min Rain = 0
KTH1 060447Z 09007KT 23/19 A2991 RMK A01 T02290191  RH  079%=      5-min Rain = 0
KTH1 060448Z 10006KT 23/19 A2991 RMK A01 T02280191  RH  079%=      5-min Rain = 0
KTH1 060449Z 10005KT 23/19 A2991 RMK A01 T02280191  RH  079%=      5-min Rain = 0
KTH1 060450Z 11005KT 23/19 A2991 RMK A01 T02280191  RH  080%=      5-min Rain = 0
KTH1 060451Z 10005KT 23/19 A2991 RMK A01 T02280191  RH  080%=      5-min Rain = 0
KTH1 060452Z 10006KT 23/19 A2991 RMK A01 T02280191  RH  080%=      5-min Rain = 0
KTH1 060453Z 09006KT 23/19 A2991 RMK A01 T02270191  RH  080%=      5-min Rain = 0
KTH1 060454Z 09006KT 23/19 A2991 RMK A01 T02270190  RH  080%=      5-min Rain = 0
KTH1 060455Z 09005KT 23/19 A2991 RMK A01 T02270190  RH  080%=      5-min Rain = 0
KTH1 060456Z 10005KT 23/19 A2991 RMK A01 T02260190  RH  080%=      5-min Rain = 0
KTH1 060457Z 09004KT 23/19 A2991 RMK A01 T02260190  RH  080%=      5-min Rain = 0
KTH1 060458Z 09005KT 23/19 A2991 RMK A01 T02260190  RH  080%=      5-min Rain = 0
KTH1 060459Z 09004KT 23/19 A2991 RMK A01 T02260190  RH  080%=      5-min Rain = 0

Page generated in 0.0741 seconds.